<?xml version='1.0' encoding='UTF-8'?>
<gpx xmlns="http://www.topografix.com/GPX/1/1" creator="www.balnam.be" version="1.1" xmlns:xsi="http://www.w3.org/2001/XMLSchema-instance" xsi:schemaLocation="http://www.topografix.com/GPX/1/1 http://www.topografix.com/GPX/1/1/gpx.xsd">
<trk>
<name>lhvba1</name>
<cmt>r</cmt>
<desc>Battice Chemin n°1 Monty</desc>
<link href="https://chemins.be/battice/chemin/1"/><trkseg>
<trkpt lat="50.650716" lon="5.810905"><time>2026-05-07T19:36:49Z</time></trkpt>
<trkpt lat="50.655591" lon="5.815155"><time>2026-05-07T19:46:49Z</time></trkpt>
<trkpt lat="50.656274" lon="5.815191"><time>2026-05-07T19:56:49Z</time></trkpt>
<trkpt lat="50.656597" lon="5.815914"><time>2026-05-07T20:06:49Z</time></trkpt>
<trkpt lat="50.656631" lon="5.818299"><time>2026-05-07T20:16:49Z</time></trkpt>
<trkpt lat="50.657428" lon="5.819286"><time>2026-05-07T20:26:49Z</time></trkpt>
</trkseg></trk>
<trk>
<name>lhvba1</name>
<cmt>v</cmt>
<desc>Battice Chemin n°1 Monty</desc>
<link href="https://chemins.be/battice/chemin/1"/><trkseg>
<trkpt lat="50.657428" lon="5.819286"><time>2026-05-07T20:26:49Z</time></trkpt>
<trkpt lat="50.657884" lon="5.819833"><time>2026-05-07T20:36:49Z</time></trkpt>
<trkpt lat="50.661314" lon="5.822050"><time>2026-05-07T20:46:49Z</time></trkpt>
<trkpt lat="50.662650" lon="5.822023"><time>2026-05-07T20:56:49Z</time></trkpt>
<trkpt lat="50.664069" lon="5.823341"><time>2026-05-07T21:06:49Z</time></trkpt>
<trkpt lat="50.664958" lon="5.822582"><time>2026-05-07T21:16:49Z</time></trkpt>
<trkpt lat="50.665726" lon="5.822518"><time>2026-05-07T21:26:49Z</time></trkpt>
<trkpt lat="50.666479" lon="5.823266"><time>2026-05-07T21:36:49Z</time></trkpt>
<trkpt lat="50.667768" lon="5.824307"><time>2026-05-07T21:46:49Z</time></trkpt>
</trkseg>
</trk>
<trk>
<name>lhvba10</name>
<cmt>v</cmt>
<desc>Battice Chemin n°10 </desc>
<link href="https://chemins.be/battice/chemin/10"/><trkseg>
<trkpt lat="50.634748" lon="5.821239"><time>2026-05-07T19:36:49Z</time></trkpt>
<trkpt lat="50.634829" lon="5.822715"><time>2026-05-07T19:46:49Z</time></trkpt>
<trkpt lat="50.634799" lon="5.822847"><time>2026-05-07T19:56:49Z</time></trkpt>
</trkseg></trk>
<trk>
<name>lhvba10</name>
<cmt>q</cmt>
<desc>Battice Chemin n°10 </desc>
<link href="https://chemins.be/battice/chemin/10"/><trkseg>
<trkpt lat="50.634799" lon="5.822847"><time>2026-05-07T19:56:49Z</time></trkpt>
<trkpt lat="50.634340" lon="5.824565"><time>2026-05-07T20:06:49Z</time></trkpt>
<trkpt lat="50.634671" lon="5.825166"><time>2026-05-07T20:16:49Z</time></trkpt>
<trkpt lat="50.634608" lon="5.826661"><time>2026-05-07T20:26:49Z</time></trkpt>
<trkpt lat="50.634068" lon="5.827660"><time>2026-05-07T20:36:49Z</time></trkpt>
</trkseg></trk>
<trk>
<name>lhvba10</name>
<cmt>r</cmt>
<desc>Battice Chemin n°10 </desc>
<link href="https://chemins.be/battice/chemin/10"/><trkseg>
<trkpt lat="50.634068" lon="5.827660"><time>2026-05-07T20:36:49Z</time></trkpt>
<trkpt lat="50.633904" lon="5.830432"><time>2026-05-07T20:46:49Z</time></trkpt>
<trkpt lat="50.631345" lon="5.835224"><time>2026-05-07T20:56:49Z</time></trkpt>
<trkpt lat="50.631200" lon="5.837442"><time>2026-05-07T21:06:49Z</time></trkpt>
<trkpt lat="50.630075" lon="5.839788"><time>2026-05-07T21:16:49Z</time></trkpt>
<trkpt lat="50.629793" lon="5.842105"><time>2026-05-07T21:26:49Z</time></trkpt>
<trkpt lat="50.630129" lon="5.844780"><time>2026-05-07T21:36:49Z</time></trkpt>
<trkpt lat="50.629929" lon="5.846354"><time>2026-05-07T21:46:49Z</time></trkpt>
</trkseg></trk>
<trk>
<name>lhvba10</name>
<cmt>s</cmt>
<desc>Battice Chemin n°10 </desc>
<link href="https://chemins.be/battice/chemin/10"/><trkseg>
<trkpt lat="50.629929" lon="5.846354"><time>2026-05-07T21:46:49Z</time></trkpt>
<trkpt lat="50.630178" lon="5.850079"><time>2026-05-07T21:56:49Z</time></trkpt>
</trkseg></trk>
<trk>
<name>lhvba10</name>
<cmt>r</cmt>
<desc>Battice Chemin n°10 </desc>
<link href="https://chemins.be/battice/chemin/10"/><trkseg>
<trkpt lat="50.630178" lon="5.850079"><time>2026-05-07T21:56:49Z</time></trkpt>
<trkpt lat="50.630205" lon="5.851384"><time>2026-05-07T22:06:49Z</time></trkpt>
<trkpt lat="50.629901" lon="5.851470"><time>2026-05-07T22:16:49Z</time></trkpt>
<trkpt lat="50.629824" lon="5.852099"><time>2026-05-07T22:26:49Z</time></trkpt>
<trkpt lat="50.629069" lon="5.853789"><time>2026-05-07T22:36:49Z</time></trkpt>
<trkpt lat="50.628801" lon="5.854271"><time>2026-05-07T22:46:49Z</time></trkpt>
</trkseg></trk>
<trk>
<name>lhvba10</name>
<cmt>q</cmt>
<desc>Battice Chemin n°10 </desc>
<link href="https://chemins.be/battice/chemin/10"/><trkseg>
<trkpt lat="50.628801" lon="5.854271"><time>2026-05-07T22:46:49Z</time></trkpt>
<trkpt lat="50.628577" lon="5.854695"><time>2026-05-07T22:56:49Z</time></trkpt>
<trkpt lat="50.627163" lon="5.853102"><time>2026-05-07T23:06:49Z</time></trkpt>
</trkseg>
</trk>
<trk>
<name>lhvba100</name>
<cmt>v</cmt>
<desc>Battice Chemin n°100 Rue des deux Tilleuls</desc>
<link href="https://chemins.be/battice/chemin/100"/><trkseg>
<trkpt lat="50.623381" lon="5.770351"><time>2026-05-07T19:36:49Z</time></trkpt>
<trkpt lat="50.622697" lon="5.772719"><time>2026-05-07T19:46:49Z</time></trkpt>
</trkseg>
</trk>
<trk>
<name>lhvba103</name>
<cmt>v</cmt>
<desc>Battice Chemin/sentier n°103 </desc>
<link href="https://chemins.be/battice/chemin/103"/><trkseg>
<trkpt lat="50.626374" lon="5.776970"><time>2026-05-07T19:36:49Z</time></trkpt>
<trkpt lat="50.626210" lon="5.777993"><time>2026-05-07T19:46:49Z</time></trkpt>
<trkpt lat="50.626469" lon="5.779967"><time>2026-05-07T19:56:49Z</time></trkpt>
<trkpt lat="50.626869" lon="5.781033"><time>2026-05-07T20:06:49Z</time></trkpt>
</trkseg>
</trk>
<trk>
<name>lhvba104</name>
<cmt>v</cmt>
<desc>Battice Chemin n°104 </desc>
<link href="https://chemins.be/battice/chemin/104"/><trkseg>
<trkpt lat="50.626691" lon="5.772555"><time>2026-05-07T19:36:49Z</time></trkpt>
<trkpt lat="50.626027" lon="5.773935"><time>2026-05-07T19:46:49Z</time></trkpt>
</trkseg>
</trk>
<trk>
<name>lhvba106</name>
<cmt>v</cmt>
<desc>Battice Chemin n°106 Chemin du Bayon</desc>
<link href="https://chemins.be/battice/chemin/106"/><trkseg>
<trkpt lat="50.627797" lon="5.774002"><time>2026-05-07T19:36:49Z</time></trkpt>
<trkpt lat="50.627795" lon="5.774185"><time>2026-05-07T19:46:49Z</time></trkpt>
<trkpt lat="50.627872" lon="5.774485"><time>2026-05-07T19:56:49Z</time></trkpt>
<trkpt lat="50.628218" lon="5.774933"><time>2026-05-07T20:06:49Z</time></trkpt>
<trkpt lat="50.628493" lon="5.775252"><time>2026-05-07T20:16:49Z</time></trkpt>
<trkpt lat="50.628886" lon="5.775462"><time>2026-05-07T20:26:49Z</time></trkpt>
<trkpt lat="50.629524" lon="5.776188"><time>2026-05-07T20:36:49Z</time></trkpt>
<trkpt lat="50.629774" lon="5.776393"><time>2026-05-07T20:46:49Z</time></trkpt>
<trkpt lat="50.629834" lon="5.776579"><time>2026-05-07T20:56:49Z</time></trkpt>
<trkpt lat="50.629849" lon="5.776834"><time>2026-05-07T21:06:49Z</time></trkpt>
<trkpt lat="50.629891" lon="5.777061"><time>2026-05-07T21:16:49Z</time></trkpt>
<trkpt lat="50.630103" lon="5.777407"><time>2026-05-07T21:26:49Z</time></trkpt>
</trkseg>
</trk>
<trk>
<name>lhvba108</name>
<cmt>s</cmt>
<desc>Battice Chemin n°108 </desc>
<link href="https://chemins.be/battice/chemin/108"/><trkseg>
<trkpt lat="50.631534" lon="5.762707"><time>2026-05-07T19:36:49Z</time></trkpt>
<trkpt lat="50.631473" lon="5.764978"><time>2026-05-07T19:46:49Z</time></trkpt>
<trkpt lat="50.631950" lon="5.766137"><time>2026-05-07T19:56:49Z</time></trkpt>
</trkseg>
</trk>
<trk>
<name>lhvba109</name>
<cmt>s</cmt>
<desc>Battice Chemin n°109 </desc>
<link href="https://chemins.be/battice/chemin/109"/><trkseg>
<trkpt lat="50.631471" lon="5.764753"><time>2026-05-07T19:36:49Z</time></trkpt>
<trkpt lat="50.630931" lon="5.765028"><time>2026-05-07T19:46:49Z</time></trkpt>
</trkseg>
</trk>
<trk>
<name>lhvba10bis</name>
<cmt>v</cmt>
<desc>Battice Chemin n°10bis </desc>
<link href="https://chemins.be/battice/chemin/10bis"/><trkseg>
<trkpt lat="50.631614" lon="5.835560"><time>2026-05-07T19:36:49Z</time></trkpt>
<trkpt lat="50.631553" lon="5.835764"><time>2026-05-07T19:46:49Z</time></trkpt>
</trkseg>
</trk>
<trk>
<name>lhvba10ter</name>
<cmt>b</cmt>
<desc>Battice Chemin n°10ter </desc>
<link href="https://chemins.be/battice/chemin/10ter"/><trkseg>
<trkpt lat="50.632033" lon="5.833675"><time>2026-05-07T19:36:49Z</time></trkpt>
<trkpt lat="50.631956" lon="5.833489"><time>2026-05-07T19:46:49Z</time></trkpt>
<trkpt lat="50.632043" lon="5.833139"><time>2026-05-07T19:56:49Z</time></trkpt>
</trkseg>
</trk>
<trk>
<name>lhvba110</name>
<cmt>q</cmt>
<desc>Battice Chemin n°110 </desc>
<link href="https://chemins.be/battice/chemin/110"/><trkseg>
<trkpt lat="50.631544" lon="5.762699"><time>2026-05-07T19:36:49Z</time></trkpt>
<trkpt lat="50.632210" lon="5.764123"><time>2026-05-07T19:46:49Z</time></trkpt>
<trkpt lat="50.632451" lon="5.765074"><time>2026-05-07T19:56:49Z</time></trkpt>
</trkseg>
</trk>
<trk>
<name>lhvba112</name>
<cmt>s</cmt>
<desc>Battice Chemin n°112 </desc>
<link href="https://chemins.be/battice/chemin/112"/><trkseg>
<trkpt lat="50.636624" lon="5.766028"><time>2026-05-07T19:36:49Z</time></trkpt>
<trkpt lat="50.636380" lon="5.767160"><time>2026-05-07T19:46:49Z</time></trkpt>
</trkseg></trk>
<trk>
<name>lhvba112</name>
<cmt>v</cmt>
<desc>Battice Chemin n°112 </desc>
<link href="https://chemins.be/battice/chemin/112"/><trkseg>
<trkpt lat="50.636380" lon="5.767160"><time>2026-05-07T19:46:49Z</time></trkpt>
<trkpt lat="50.635982" lon="5.767417"><time>2026-05-07T19:56:49Z</time></trkpt>
<trkpt lat="50.635589" lon="5.768061"><time>2026-05-07T20:06:49Z</time></trkpt>
<trkpt lat="50.634756" lon="5.769879"><time>2026-05-07T20:16:49Z</time></trkpt>
<trkpt lat="50.634593" lon="5.770204"><time>2026-05-07T20:26:49Z</time></trkpt>
</trkseg></trk>
<trk>
<name>lhvba112</name>
<cmt>s</cmt>
<desc>Battice Chemin n°112 </desc>
<link href="https://chemins.be/battice/chemin/112"/><trkseg>
<trkpt lat="50.634593" lon="5.770204"><time>2026-05-07T20:26:49Z</time></trkpt>
<trkpt lat="50.633950" lon="5.771213"><time>2026-05-07T20:36:49Z</time></trkpt>
</trkseg></trk>
<trk>
<name>lhvba112</name>
<cmt>v</cmt>
<desc>Battice Chemin n°112 </desc>
<link href="https://chemins.be/battice/chemin/112"/><trkseg>
<trkpt lat="50.633950" lon="5.771213"><time>2026-05-07T20:36:49Z</time></trkpt>
<trkpt lat="50.633406" lon="5.771840"><time>2026-05-07T20:46:49Z</time></trkpt>
</trkseg></trk>
<trk>
<name>lhvba112</name>
<cmt>d</cmt>
<desc>Battice Chemin n°112 </desc>
<link href="https://chemins.be/battice/chemin/112"/><trkseg>
<trkpt lat="50.633406" lon="5.771840"><time>2026-05-07T20:46:49Z</time></trkpt>
<trkpt lat="50.633160" lon="5.772224"><time>2026-05-07T20:56:49Z</time></trkpt>
</trkseg></trk>
<trk>
<name>lhvba112</name>
<cmt>s</cmt>
<desc>Battice Chemin n°112 </desc>
<link href="https://chemins.be/battice/chemin/112"/><trkseg>
<trkpt lat="50.633160" lon="5.772224"><time>2026-05-07T20:56:49Z</time></trkpt>
<trkpt lat="50.632972" lon="5.772285"><time>2026-05-07T21:06:49Z</time></trkpt>
</trkseg></trk>
<trk>
<name>lhvba112</name>
<cmt>d</cmt>
<desc>Battice Chemin n°112 </desc>
<link href="https://chemins.be/battice/chemin/112"/><trkseg>
<trkpt lat="50.632972" lon="5.772285"><time>2026-05-07T21:06:49Z</time></trkpt>
<trkpt lat="50.632718" lon="5.772316"><time>2026-05-07T21:16:49Z</time></trkpt>
</trkseg></trk>
<trk>
<name>lhvba112</name>
<cmt>v</cmt>
<desc>Battice Chemin n°112 </desc>
<link href="https://chemins.be/battice/chemin/112"/><trkseg>
<trkpt lat="50.632718" lon="5.772316"><time>2026-05-07T21:16:49Z</time></trkpt>
<trkpt lat="50.632339" lon="5.773569"><time>2026-05-07T21:26:49Z</time></trkpt>
<trkpt lat="50.632152" lon="5.773818"><time>2026-05-07T21:36:49Z</time></trkpt>
</trkseg>
</trk>
<trk>
<name>lhvba113</name>
<cmt>v</cmt>
<desc>Battice Chemin n°113 </desc>
<link href="https://chemins.be/battice/chemin/113"/><trkseg>
<trkpt lat="50.633429" lon="5.771823"><time>2026-05-07T19:36:49Z</time></trkpt>
<trkpt lat="50.633932" lon="5.772292"><time>2026-05-07T19:46:49Z</time></trkpt>
</trkseg></trk>
<trk>
<name>lhvba113</name>
<cmt>s</cmt>
<desc>Battice Chemin n°113 </desc>
<link href="https://chemins.be/battice/chemin/113"/><trkseg>
<trkpt lat="50.633932" lon="5.772292"><time>2026-05-07T19:46:49Z</time></trkpt>
<trkpt lat="50.634617" lon="5.773708"><time>2026-05-07T19:56:49Z</time></trkpt>
</trkseg></trk>
<trk>
<name>lhvba113</name>
<cmt>v</cmt>
<desc>Battice Chemin n°113 </desc>
<link href="https://chemins.be/battice/chemin/113"/><trkseg>
<trkpt lat="50.634617" lon="5.773708"><time>2026-05-07T19:56:49Z</time></trkpt>
<trkpt lat="50.634970" lon="5.774306"><time>2026-05-07T20:06:49Z</time></trkpt>
<trkpt lat="50.635191" lon="5.774706"><time>2026-05-07T20:16:49Z</time></trkpt>
<trkpt lat="50.635227" lon="5.774837"><time>2026-05-07T20:26:49Z</time></trkpt>
</trkseg>
</trk>
<trk>
<name>lhvba115</name>
<cmt>q</cmt>
<desc>Battice Chemin n°115 </desc>
<link href="https://chemins.be/battice/chemin/115"/><trkseg>
<trkpt lat="50.644582" lon="5.775542"><time>2026-05-07T19:36:49Z</time></trkpt>
<trkpt lat="50.642273" lon="5.774633"><time>2026-05-07T19:46:49Z</time></trkpt>
<trkpt lat="50.641443" lon="5.772981"><time>2026-05-07T19:56:49Z</time></trkpt>
<trkpt lat="50.641145" lon="5.771931"><time>2026-05-07T20:06:49Z</time></trkpt>
<trkpt lat="50.640601" lon="5.771002"><time>2026-05-07T20:16:49Z</time></trkpt>
</trkseg></trk>
<trk>
<name>lhvba115</name>
<cmt>v</cmt>
<desc>Battice Chemin n°115 </desc>
<link href="https://chemins.be/battice/chemin/115"/><trkseg>
<trkpt lat="50.640601" lon="5.771002"><time>2026-05-07T20:16:49Z</time></trkpt>
<trkpt lat="50.639762" lon="5.770405"><time>2026-05-07T20:26:49Z</time></trkpt>
<trkpt lat="50.638791" lon="5.769486"><time>2026-05-07T20:36:49Z</time></trkpt>
<trkpt lat="50.638585" lon="5.769436"><time>2026-05-07T20:46:49Z</time></trkpt>
<trkpt lat="50.638145" lon="5.768699"><time>2026-05-07T20:56:49Z</time></trkpt>
<trkpt lat="50.637110" lon="5.768027"><time>2026-05-07T21:06:49Z</time></trkpt>
</trkseg></trk>
<trk>
<name>lhvba115</name>
<cmt>r</cmt>
<desc>Battice Chemin n°115 </desc>
<link href="https://chemins.be/battice/chemin/115"/><trkseg>
<trkpt lat="50.637110" lon="5.768027"><time>2026-05-07T21:06:49Z</time></trkpt>
<trkpt lat="50.636392" lon="5.767192"><time>2026-05-07T21:16:49Z</time></trkpt>
</trkseg></trk>
<trk>
<name>lhvba115</name>
<cmt>v</cmt>
<desc>Battice Chemin n°115 </desc>
<link href="https://chemins.be/battice/chemin/115"/><trkseg>
<trkpt lat="50.636392" lon="5.767192"><time>2026-05-07T21:16:49Z</time></trkpt>
<trkpt lat="50.635069" lon="5.762938"><time>2026-05-07T21:26:49Z</time></trkpt>
</trkseg>
</trk>
<trk>
<name>lhvba117</name>
<cmt>v</cmt>
<desc>Battice Chemin n°117 </desc>
<link href="https://chemins.be/battice/chemin/117"/><trkseg>
<trkpt lat="50.643464" lon="5.777696"><time>2026-05-07T19:36:49Z</time></trkpt>
<trkpt lat="50.642310" lon="5.774666"><time>2026-05-07T19:46:49Z</time></trkpt>
</trkseg>
</trk>
<trk>
<name>lhvba118</name>
<cmt>v</cmt>
<desc>Battice Chemin n°118 </desc>
<link href="https://chemins.be/battice/chemin/118"/><trkseg>
<trkpt lat="50.646617" lon="5.784919"><time>2026-05-07T19:36:49Z</time></trkpt>
<trkpt lat="50.646052" lon="5.785992"><time>2026-05-07T19:46:49Z</time></trkpt>
<trkpt lat="50.645556" lon="5.786603"><time>2026-05-07T19:56:49Z</time></trkpt>
<trkpt lat="50.645066" lon="5.786882"><time>2026-05-07T20:06:49Z</time></trkpt>
</trkseg>
</trk>
<trk>
<name>lhvba12</name>
<cmt>r</cmt>
<desc>Battice Chemin n°12 Rue de l'Espinette / Hauzeur</desc>
<link href="https://chemins.be/battice/chemin/12"/><trkseg>
<trkpt lat="50.631118" lon="5.837371"><time>2026-05-07T19:36:49Z</time></trkpt>
<trkpt lat="50.631599" lon="5.838018"><time>2026-05-07T19:46:49Z</time></trkpt>
<trkpt lat="50.632168" lon="5.838153"><time>2026-05-07T19:56:49Z</time></trkpt>
</trkseg></trk>
<trk>
<name>lhvba12</name>
<cmt>s</cmt>
<desc>Battice Chemin n°12 Rue de l'Espinette / Hauzeur</desc>
<link href="https://chemins.be/battice/chemin/12"/><trkseg>
<trkpt lat="50.632168" lon="5.838153"><time>2026-05-07T19:56:49Z</time></trkpt>
<trkpt lat="50.632283" lon="5.838213"><time>2026-05-07T20:06:49Z</time></trkpt>
</trkseg></trk>
<trk>
<name>lhvba12</name>
<cmt>v</cmt>
<desc>Battice Chemin n°12 Rue de l'Espinette / Hauzeur</desc>
<link href="https://chemins.be/battice/chemin/12"/><trkseg>
<trkpt lat="50.632283" lon="5.838213"><time>2026-05-07T20:06:49Z</time></trkpt>
<trkpt lat="50.633531" lon="5.838578"><time>2026-05-07T20:16:49Z</time></trkpt>
</trkseg></trk>
<trk>
<name>lhvba12</name>
<cmt>r</cmt>
<desc>Battice Chemin n°12 Rue de l'Espinette / Hauzeur</desc>
<link href="https://chemins.be/battice/chemin/12"/><trkseg>
<trkpt lat="50.633531" lon="5.838578"><time>2026-05-07T20:16:49Z</time></trkpt>
<trkpt lat="50.633689" lon="5.838593"><time>2026-05-07T20:26:49Z</time></trkpt>
<trkpt lat="50.634038" lon="5.838544"><time>2026-05-07T20:36:49Z</time></trkpt>
</trkseg></trk>
<trk>
<name>lhvba12</name>
<cmt>s</cmt>
<desc>Battice Chemin n°12 Rue de l'Espinette / Hauzeur</desc>
<link href="https://chemins.be/battice/chemin/12"/><trkseg>
<trkpt lat="50.634038" lon="5.838544"><time>2026-05-07T20:36:49Z</time></trkpt>
<trkpt lat="50.634415" lon="5.838293"><time>2026-05-07T20:46:49Z</time></trkpt>
<trkpt lat="50.634981" lon="5.837110"><time>2026-05-07T20:56:49Z</time></trkpt>
<trkpt lat="50.635776" lon="5.838608"><time>2026-05-07T21:06:49Z</time></trkpt>
<trkpt lat="50.637892" lon="5.838298"><time>2026-05-07T21:16:49Z</time></trkpt>
<trkpt lat="50.638804" lon="5.837712"><time>2026-05-07T21:26:49Z</time></trkpt>
</trkseg>
</trk>
<trk>
<name>lhvba122</name>
<cmt>s</cmt>
<desc>Battice Chemin n°122 </desc>
<link href="https://chemins.be/battice/chemin/122"/><trkseg>
<trkpt lat="50.648377" lon="5.796614"><time>2026-05-07T19:36:49Z</time></trkpt>
<trkpt lat="50.649433" lon="5.795730"><time>2026-05-07T19:46:49Z</time></trkpt>
<trkpt lat="50.650380" lon="5.794846"><time>2026-05-07T19:56:49Z</time></trkpt>
<trkpt lat="50.651909" lon="5.794134"><time>2026-05-07T20:06:49Z</time></trkpt>
<trkpt lat="50.654298" lon="5.793318"><time>2026-05-07T20:16:49Z</time></trkpt>
<trkpt lat="50.656165" lon="5.792898"><time>2026-05-07T20:26:49Z</time></trkpt>
</trkseg>
</trk>
<trk>
<name>lhvba125</name>
<cmt>q</cmt>
<desc>Battice Chemin n°125 </desc>
<link href="https://chemins.be/battice/chemin/125"/><trkseg>
<trkpt lat="50.669622" lon="5.775002"><time>2026-05-07T19:36:49Z</time></trkpt>
<trkpt lat="50.670279" lon="5.776024"><time>2026-05-07T19:46:49Z</time></trkpt>
<trkpt lat="50.671195" lon="5.776833"><time>2026-05-07T19:56:49Z</time></trkpt>
<trkpt lat="50.671780" lon="5.779236"><time>2026-05-07T20:06:49Z</time></trkpt>
<trkpt lat="50.671462" lon="5.780717"><time>2026-05-07T20:16:49Z</time></trkpt>
<trkpt lat="50.671884" lon="5.781761"><time>2026-05-07T20:26:49Z</time></trkpt>
<trkpt lat="50.672120" lon="5.782769"><time>2026-05-07T20:36:49Z</time></trkpt>
<trkpt lat="50.671974" lon="5.783413"><time>2026-05-07T20:46:49Z</time></trkpt>
<trkpt lat="50.672636" lon="5.784286"><time>2026-05-07T20:56:49Z</time></trkpt>
<trkpt lat="50.673434" lon="5.783971"><time>2026-05-07T21:06:49Z</time></trkpt>
</trkseg>
</trk>
<trk>
<name>lhvba126</name>
<cmt>q</cmt>
<desc>Battice Chemin n°126 Rue Hacboister</desc>
<link href="https://chemins.be/battice/chemin/126"/><trkseg>
<trkpt lat="50.670138" lon="5.761151"><time>2026-05-07T19:36:49Z</time></trkpt>
<trkpt lat="50.669304" lon="5.760380"><time>2026-05-07T19:46:49Z</time></trkpt>
</trkseg></trk>
<trk>
<name>lhvba126</name>
<cmt>r</cmt>
<desc>Battice Chemin n°126 Rue Hacboister</desc>
<link href="https://chemins.be/battice/chemin/126"/><trkseg>
<trkpt lat="50.669304" lon="5.760380"><time>2026-05-07T19:46:49Z</time></trkpt>
<trkpt lat="50.669030" lon="5.760535"><time>2026-05-07T19:56:49Z</time></trkpt>
<trkpt lat="50.668823" lon="5.760332"><time>2026-05-07T20:06:49Z</time></trkpt>
</trkseg></trk>
<trk>
<name>lhvba126</name>
<cmt>v</cmt>
<desc>Battice Chemin n°126 Rue Hacboister</desc>
<link href="https://chemins.be/battice/chemin/126"/><trkseg>
<trkpt lat="50.668823" lon="5.760332"><time>2026-05-07T20:06:49Z</time></trkpt>
<trkpt lat="50.668861" lon="5.759971"><time>2026-05-07T20:16:49Z</time></trkpt>
<trkpt lat="50.669055" lon="5.759621"><time>2026-05-07T20:26:49Z</time></trkpt>
<trkpt lat="50.669435" lon="5.758703"><time>2026-05-07T20:36:49Z</time></trkpt>
<trkpt lat="50.669526" lon="5.757877"><time>2026-05-07T20:46:49Z</time></trkpt>
<trkpt lat="50.669468" lon="5.756812"><time>2026-05-07T20:56:49Z</time></trkpt>
</trkseg>
</trk>
<trk>
<name>lhvba128</name>
<cmt>r</cmt>
<desc>Battice Chemin n°128 Mur du Couvent</desc>
<link href="https://chemins.be/battice/chemin/128"/><trkseg>
<trkpt lat="50.659188" lon="5.784407"><time>2026-05-07T19:36:49Z</time></trkpt>
<trkpt lat="50.659995" lon="5.787733"><time>2026-05-07T19:46:49Z</time></trkpt>
</trkseg></trk>
<trk>
<name>lhvba128</name>
<cmt>d</cmt>
<desc>Battice Chemin n°128 Mur du Couvent</desc>
<link href="https://chemins.be/battice/chemin/128"/><trkseg>
<trkpt lat="50.659995" lon="5.787733"><time>2026-05-07T19:46:49Z</time></trkpt>
<trkpt lat="50.660150" lon="5.788381"><time>2026-05-07T19:56:49Z</time></trkpt>
</trkseg>
</trk>
<trk>
<name>lhvba129</name>
<cmt>v</cmt>
<desc>Battice Chemin n°129 </desc>
<link href="https://chemins.be/battice/chemin/129"/><trkseg>
<trkpt lat="50.668784" lon="5.782970"><time>2026-05-07T19:36:49Z</time></trkpt>
<trkpt lat="50.668133" lon="5.782905"><time>2026-05-07T19:46:49Z</time></trkpt>
</trkseg></trk>
<trk>
<name>lhvba129</name>
<cmt>d</cmt>
<desc>Battice Chemin n°129 </desc>
<link href="https://chemins.be/battice/chemin/129"/><trkseg>
<trkpt lat="50.668133" lon="5.782905"><time>2026-05-07T19:46:49Z</time></trkpt>
<trkpt lat="50.666694" lon="5.783012"><time>2026-05-07T19:56:49Z</time></trkpt>
<trkpt lat="50.666146" lon="5.783449"><time>2026-05-07T20:06:49Z</time></trkpt>
<trkpt lat="50.665402" lon="5.785058"><time>2026-05-07T20:16:49Z</time></trkpt>
<trkpt lat="50.664841" lon="5.785693"><time>2026-05-07T20:26:49Z</time></trkpt>
<trkpt lat="50.662433" lon="5.788420"><time>2026-05-07T20:36:49Z</time></trkpt>
<trkpt lat="50.661951" lon="5.789304"><time>2026-05-07T20:46:49Z</time></trkpt>
<trkpt lat="50.661617" lon="5.789700"><time>2026-05-07T20:56:49Z</time></trkpt>
</trkseg>
</trk>
<trk>
<name>lhvba130</name>
<cmt>v</cmt>
<desc>Battice Chemin n°130 </desc>
<link href="https://chemins.be/battice/chemin/130"/><trkseg>
<trkpt lat="50.627621" lon="5.835079"><time>2026-05-07T19:36:49Z</time></trkpt>
<trkpt lat="50.627766" lon="5.834956"><time>2026-05-07T19:46:49Z</time></trkpt>
<trkpt lat="50.627948" lon="5.834820"><time>2026-05-07T19:56:49Z</time></trkpt>
<trkpt lat="50.628120" lon="5.834727"><time>2026-05-07T20:06:49Z</time></trkpt>
<trkpt lat="50.628328" lon="5.834648"><time>2026-05-07T20:16:49Z</time></trkpt>
<trkpt lat="50.628544" lon="5.834584"><time>2026-05-07T20:26:49Z</time></trkpt>
<trkpt lat="50.628770" lon="5.834521"><time>2026-05-07T20:36:49Z</time></trkpt>
<trkpt lat="50.628995" lon="5.834513"><time>2026-05-07T20:46:49Z</time></trkpt>
<trkpt lat="50.629157" lon="5.834533"><time>2026-05-07T20:56:49Z</time></trkpt>
<trkpt lat="50.629326" lon="5.834609"><time>2026-05-07T21:06:49Z</time></trkpt>
<trkpt lat="50.629443" lon="5.834640"><time>2026-05-07T21:16:49Z</time></trkpt>
<trkpt lat="50.629623" lon="5.834632"><time>2026-05-07T21:26:49Z</time></trkpt>
<trkpt lat="50.629804" lon="5.834567"><time>2026-05-07T21:36:49Z</time></trkpt>
<trkpt lat="50.629984" lon="5.834502"><time>2026-05-07T21:46:49Z</time></trkpt>
<trkpt lat="50.630048" lon="5.834461"><time>2026-05-07T21:56:49Z</time></trkpt>
</trkseg>
</trk>
<trk>
<name>lhvba131</name>
<cmt>v</cmt>
<desc>Battice Chemin n°131 Trou l'Bo</desc>
<link href="https://chemins.be/battice/chemin/131"/><trkseg>
<trkpt lat="50.626172" lon="5.831627"><time>2026-05-07T19:36:49Z</time></trkpt>
<trkpt lat="50.626189" lon="5.831726"><time>2026-05-07T19:46:49Z</time></trkpt>
<trkpt lat="50.626142" lon="5.831880"><time>2026-05-07T19:56:49Z</time></trkpt>
<trkpt lat="50.626130" lon="5.832106"><time>2026-05-07T20:06:49Z</time></trkpt>
<trkpt lat="50.626217" lon="5.832293"><time>2026-05-07T20:16:49Z</time></trkpt>
<trkpt lat="50.626296" lon="5.832451"><time>2026-05-07T20:26:49Z</time></trkpt>
<trkpt lat="50.626376" lon="5.832580"><time>2026-05-07T20:36:49Z</time></trkpt>
<trkpt lat="50.626500" lon="5.832669"><time>2026-05-07T20:46:49Z</time></trkpt>
<trkpt lat="50.626679" lon="5.832731"><time>2026-05-07T20:56:49Z</time></trkpt>
<trkpt lat="50.626849" lon="5.832835"><time>2026-05-07T21:06:49Z</time></trkpt>
<trkpt lat="50.627062" lon="5.833026"><time>2026-05-07T21:16:49Z</time></trkpt>
<trkpt lat="50.627247" lon="5.833328"><time>2026-05-07T21:26:49Z</time></trkpt>
<trkpt lat="50.627317" lon="5.833500"><time>2026-05-07T21:36:49Z</time></trkpt>
<trkpt lat="50.627341" lon="5.833784"><time>2026-05-07T21:46:49Z</time></trkpt>
<trkpt lat="50.627356" lon="5.833982"><time>2026-05-07T21:56:49Z</time></trkpt>
<trkpt lat="50.627444" lon="5.834168"><time>2026-05-07T22:06:49Z</time></trkpt>
<trkpt lat="50.627478" lon="5.834268"><time>2026-05-07T22:16:49Z</time></trkpt>
<trkpt lat="50.627468" lon="5.834381"><time>2026-05-07T22:26:49Z</time></trkpt>
<trkpt lat="50.627431" lon="5.834465"><time>2026-05-07T22:36:49Z</time></trkpt>
<trkpt lat="50.627421" lon="5.834549"><time>2026-05-07T22:46:49Z</time></trkpt>
</trkseg>
</trk>
<trk>
<name>lhvba132</name>
<cmt>r</cmt>
<desc>Battice Chemin n°132 Thier Nagant</desc>
<link href="https://chemins.be/battice/chemin/132"/><trkseg>
<trkpt lat="50.678384" lon="5.778500"><time>2026-05-07T19:36:49Z</time></trkpt>
<trkpt lat="50.677642" lon="5.774235"><time>2026-05-07T19:46:49Z</time></trkpt>
</trkseg>
</trk>
<trk>
<name>lhvba133</name>
<cmt>q</cmt>
<desc>Battice Sentier n°133 </desc>
<link href="https://chemins.be/battice/sentier/133"/><trkseg>
<trkpt lat="50.672129" lon="5.773398"><time>2026-05-07T19:36:49Z</time></trkpt>
<trkpt lat="50.674287" lon="5.776459"><time>2026-05-07T19:46:49Z</time></trkpt>
<trkpt lat="50.676825" lon="5.777260"><time>2026-05-07T19:56:49Z</time></trkpt>
<trkpt lat="50.678466" lon="5.778590"><time>2026-05-07T20:06:49Z</time></trkpt>
</trkseg>
</trk>
<trk>
<name>lhvba136</name>
<cmt>q</cmt>
<desc>Battice Sentier n°136 </desc>
<link href="https://chemins.be/battice/sentier/136"/><trkseg>
<trkpt lat="50.669511" lon="5.757958"><time>2026-05-07T19:36:49Z</time></trkpt>
<trkpt lat="50.669289" lon="5.757873"><time>2026-05-07T19:46:49Z</time></trkpt>
</trkseg>
</trk>
<trk>
<name>lhvba137</name>
<cmt>q</cmt>
<desc>Battice Sentier n°137 </desc>
<link href="https://chemins.be/battice/sentier/137"/><trkseg>
<trkpt lat="50.669499" lon="5.762617"><time>2026-05-07T19:36:49Z</time></trkpt>
<trkpt lat="50.669066" lon="5.760551"><time>2026-05-07T19:46:49Z</time></trkpt>
</trkseg>
</trk>
<trk>
<name>lhvba138</name>
<cmt>q</cmt>
<desc>Battice Sentier n°138 </desc>
<link href="https://chemins.be/battice/sentier/138"/><trkseg>
<trkpt lat="50.665752" lon="5.767985"><time>2026-05-07T19:36:49Z</time></trkpt>
<trkpt lat="50.666764" lon="5.772019"><time>2026-05-07T19:46:49Z</time></trkpt>
<trkpt lat="50.667265" lon="5.774903"><time>2026-05-07T19:56:49Z</time></trkpt>
</trkseg></trk>
<trk>
<name>lhvba138</name>
<cmt>v</cmt>
<desc>Battice Sentier n°138 </desc>
<link href="https://chemins.be/battice/sentier/138"/><trkseg>
<trkpt lat="50.667265" lon="5.774903"><time>2026-05-07T19:56:49Z</time></trkpt>
<trkpt lat="50.668211" lon="5.776431"><time>2026-05-07T20:06:49Z</time></trkpt>
</trkseg></trk>
<trk>
<name>lhvba138</name>
<cmt>r</cmt>
<desc>Battice Sentier n°138 </desc>
<link href="https://chemins.be/battice/sentier/138"/><trkseg>
<trkpt lat="50.668211" lon="5.776431"><time>2026-05-07T20:06:49Z</time></trkpt>
<trkpt lat="50.668015" lon="5.776706"><time>2026-05-07T20:16:49Z</time></trkpt>
</trkseg></trk>
<trk>
<name>lhvba138</name>
<cmt>q</cmt>
<desc>Battice Sentier n°138 </desc>
<link href="https://chemins.be/battice/sentier/138"/><trkseg>
<trkpt lat="50.668015" lon="5.776706"><time>2026-05-07T20:16:49Z</time></trkpt>
<trkpt lat="50.668919" lon="5.778920"><time>2026-05-07T20:26:49Z</time></trkpt>
<trkpt lat="50.670384" lon="5.781963"><time>2026-05-07T20:36:49Z</time></trkpt>
<trkpt lat="50.670620" lon="5.784729"><time>2026-05-07T20:46:49Z</time></trkpt>
<trkpt lat="50.670501" lon="5.786381"><time>2026-05-07T20:56:49Z</time></trkpt>
</trkseg>
</trk>
<trk>
<name>lhvba139</name>
<cmt>v</cmt>
<desc>Battice Sentier n°139 </desc>
<link href="https://chemins.be/battice/sentier/139"/><trkseg>
<trkpt lat="50.672685" lon="5.783898"><time>2026-05-07T19:36:49Z</time></trkpt>
<trkpt lat="50.672821" lon="5.785958"><time>2026-05-07T19:46:49Z</time></trkpt>
</trkseg>
</trk>
<trk>
<name>lhvba140</name>
<cmt>v</cmt>
<desc>Battice Chemin/sentier n°140 sentier 140</desc>
<link href="https://chemins.be/battice/chemin/140"/><trkseg>
<trkpt lat="50.659609" lon="5.783890"><time>2026-05-07T19:36:49Z</time></trkpt>
<trkpt lat="50.659441" lon="5.783282"><time>2026-05-07T19:46:49Z</time></trkpt>
<trkpt lat="50.659486" lon="5.782534"><time>2026-05-07T19:56:49Z</time></trkpt>
<trkpt lat="50.659409" lon="5.781995"><time>2026-05-07T20:06:49Z</time></trkpt>
<trkpt lat="50.659317" lon="5.781843"><time>2026-05-07T20:16:49Z</time></trkpt>
</trkseg></trk>
<trk>
<name>lhvba140</name>
<cmt>r</cmt>
<desc>Battice Chemin/sentier n°140 sentier 140</desc>
<link href="https://chemins.be/battice/chemin/140"/><trkseg>
<trkpt lat="50.659317" lon="5.781843"><time>2026-05-07T20:16:49Z</time></trkpt>
<trkpt lat="50.659344" lon="5.781335"><time>2026-05-07T20:26:49Z</time></trkpt>
<trkpt lat="50.659461" lon="5.780896"><time>2026-05-07T20:36:49Z</time></trkpt>
<trkpt lat="50.659643" lon="5.780585"><time>2026-05-07T20:46:49Z</time></trkpt>
</trkseg></trk>
<trk>
<name>lhvba140</name>
<cmt>v</cmt>
<desc>Battice Chemin/sentier n°140 sentier 140</desc>
<link href="https://chemins.be/battice/chemin/140"/><trkseg>
<trkpt lat="50.659643" lon="5.780585"><time>2026-05-07T20:46:49Z</time></trkpt>
<trkpt lat="50.660214" lon="5.779494"><time>2026-05-07T20:56:49Z</time></trkpt>
</trkseg>
</trk>
<trk>
<name>lhvba141</name>
<cmt>q</cmt>
<desc>Battice Sentier n°141 Voie des Hougnes</desc>
<link href="https://chemins.be/battice/sentier/141"/><trkseg>
<trkpt lat="50.652052" lon="5.790387"><time>2026-05-07T19:36:49Z</time></trkpt>
<trkpt lat="50.653314" lon="5.787988"><time>2026-05-07T19:46:49Z</time></trkpt>
</trkseg></trk>
<trk>
<name>lhvba141</name>
<cmt>r</cmt>
<desc>Battice Sentier n°141 Voie des Hougnes</desc>
<link href="https://chemins.be/battice/sentier/141"/><trkseg>
<trkpt lat="50.653314" lon="5.787988"><time>2026-05-07T19:46:49Z</time></trkpt>
<trkpt lat="50.653341" lon="5.787001"><time>2026-05-07T19:56:49Z</time></trkpt>
</trkseg></trk>
<trk>
<name>lhvba141</name>
<cmt>q</cmt>
<desc>Battice Sentier n°141 Voie des Hougnes</desc>
<link href="https://chemins.be/battice/sentier/141"/><trkseg>
<trkpt lat="50.653341" lon="5.787001"><time>2026-05-07T19:56:49Z</time></trkpt>
<trkpt lat="50.654316" lon="5.785788"><time>2026-05-07T20:06:49Z</time></trkpt>
<trkpt lat="50.656629" lon="5.782476"><time>2026-05-07T20:16:49Z</time></trkpt>
<trkpt lat="50.657373" lon="5.782576"><time>2026-05-07T20:26:49Z</time></trkpt>
<trkpt lat="50.658474" lon="5.781847"><time>2026-05-07T20:36:49Z</time></trkpt>
<trkpt lat="50.659059" lon="5.780187"><time>2026-05-07T20:46:49Z</time></trkpt>
<trkpt lat="50.659649" lon="5.779536"><time>2026-05-07T20:56:49Z</time></trkpt>
<trkpt lat="50.659882" lon="5.779312"><time>2026-05-07T21:06:49Z</time></trkpt>
</trkseg>
</trk>
<trk>
<name>lhvba142</name>
<cmt>q</cmt>
<desc>Battice Sentier n°142 </desc>
<link href="https://chemins.be/battice/sentier/142"/><trkseg>
<trkpt lat="50.651549" lon="5.779641"><time>2026-05-07T19:36:49Z</time></trkpt>
<trkpt lat="50.651635" lon="5.779906"><time>2026-05-07T19:46:49Z</time></trkpt>
<trkpt lat="50.651846" lon="5.780914"><time>2026-05-07T19:56:49Z</time></trkpt>
<trkpt lat="50.652078" lon="5.781103"><time>2026-05-07T20:06:49Z</time></trkpt>
<trkpt lat="50.652917" lon="5.782583"><time>2026-05-07T20:16:49Z</time></trkpt>
<trkpt lat="50.654332" lon="5.785781"><time>2026-05-07T20:26:49Z</time></trkpt>
</trkseg>
</trk>
<trk>
<name>lhvba143</name>
<cmt>v</cmt>
<desc>Battice Chemin n°143 </desc>
<link href="https://chemins.be/battice/chemin/143"/><trkseg>
<trkpt lat="50.651752" lon="5.778815"><time>2026-05-07T19:36:49Z</time></trkpt>
<trkpt lat="50.652491" lon="5.779130"><time>2026-05-07T19:46:49Z</time></trkpt>
<trkpt lat="50.653748" lon="5.777999"><time>2026-05-07T19:56:49Z</time></trkpt>
</trkseg>
</trk>
<trk>
<name>lhvba144</name>
<cmt>q</cmt>
<desc>Battice Sentier n°144 </desc>
<link href="https://chemins.be/battice/sentier/144"/><trkseg>
<trkpt lat="50.652820" lon="5.778793"><time>2026-05-07T19:36:49Z</time></trkpt>
<trkpt lat="50.653707" lon="5.777821"><time>2026-05-07T19:46:49Z</time></trkpt>
<trkpt lat="50.654868" lon="5.776984"><time>2026-05-07T19:56:49Z</time></trkpt>
</trkseg>
</trk>
<trk>
<name>lhvba145</name>
<cmt>q</cmt>
<desc>Battice Sentier n°145 </desc>
<link href="https://chemins.be/battice/sentier/145"/><trkseg>
<trkpt lat="50.648587" lon="5.795269"><time>2026-05-07T19:36:49Z</time></trkpt>
<trkpt lat="50.647441" lon="5.794475"><time>2026-05-07T19:46:49Z</time></trkpt>
<trkpt lat="50.646535" lon="5.794492"><time>2026-05-07T19:56:49Z</time></trkpt>
</trkseg>
</trk>
<trk>
<name>lhvba146</name>
<cmt>q</cmt>
<desc>Battice Sentier n°146 </desc>
<link href="https://chemins.be/battice/sentier/146"/><trkseg>
<trkpt lat="50.649063" lon="5.793267"><time>2026-05-07T19:36:49Z</time></trkpt>
<trkpt lat="50.648171" lon="5.794065"><time>2026-05-07T19:46:49Z</time></trkpt>
<trkpt lat="50.647469" lon="5.794468"><time>2026-05-07T19:56:49Z</time></trkpt>
</trkseg>
</trk>
<trk>
<name>lhvba147</name>
<cmt>v</cmt>
<desc>Battice Chemin n°147 </desc>
<link href="https://chemins.be/battice/chemin/147"/><trkseg>
<trkpt lat="50.648680" lon="5.795582"><time>2026-05-07T19:36:49Z</time></trkpt>
<trkpt lat="50.648198" lon="5.793934"><time>2026-05-07T19:46:49Z</time></trkpt>
<trkpt lat="50.648021" lon="5.793226"><time>2026-05-07T19:56:49Z</time></trkpt>
</trkseg>
</trk>
<trk>
<name>lhvba148</name>
<cmt>q</cmt>
<desc>Battice Sentier n°148 </desc>
<link href="https://chemins.be/battice/sentier/148"/><trkseg>
<trkpt lat="50.645319" lon="5.786737"><time>2026-05-07T19:36:49Z</time></trkpt>
<trkpt lat="50.645414" lon="5.784736"><time>2026-05-07T19:46:49Z</time></trkpt>
<trkpt lat="50.646122" lon="5.783170"><time>2026-05-07T19:56:49Z</time></trkpt>
<trkpt lat="50.647987" lon="5.780538"><time>2026-05-07T20:06:49Z</time></trkpt>
<trkpt lat="50.648504" lon="5.778456"><time>2026-05-07T20:16:49Z</time></trkpt>
<trkpt lat="50.648949" lon="5.777269"><time>2026-05-07T20:26:49Z</time></trkpt>
</trkseg>
</trk>
<trk>
<name>lhvba149</name>
<cmt>q</cmt>
<desc>Battice Sentier n°149 </desc>
<link href="https://chemins.be/battice/sentier/149"/><trkseg>
<trkpt lat="50.646093" lon="5.783197"><time>2026-05-07T19:36:49Z</time></trkpt>
<trkpt lat="50.644882" lon="5.783722"><time>2026-05-07T19:46:49Z</time></trkpt>
<trkpt lat="50.644059" lon="5.784538"><time>2026-05-07T19:56:49Z</time></trkpt>
</trkseg>
</trk>
<trk>
<name>lhvba150</name>
<cmt>q</cmt>
<desc>Battice Sentier n°150 </desc>
<link href="https://chemins.be/battice/sentier/150"/><trkseg>
<trkpt lat="50.651611" lon="5.779150"><time>2026-05-07T19:36:49Z</time></trkpt>
<trkpt lat="50.650831" lon="5.779687"><time>2026-05-07T19:46:49Z</time></trkpt>
<trkpt lat="50.649280" lon="5.782304"><time>2026-05-07T19:56:49Z</time></trkpt>
<trkpt lat="50.647838" lon="5.783692"><time>2026-05-07T20:06:49Z</time></trkpt>
<trkpt lat="50.647819" lon="5.784000"><time>2026-05-07T20:16:49Z</time></trkpt>
<trkpt lat="50.646881" lon="5.784436"><time>2026-05-07T20:26:49Z</time></trkpt>
<trkpt lat="50.646645" lon="5.784915"><time>2026-05-07T20:36:49Z</time></trkpt>
</trkseg>
</trk>
<trk>
<name>lhvba151</name>
<cmt>q</cmt>
<desc>Battice Sentier n°151 </desc>
<link href="https://chemins.be/battice/sentier/151"/><trkseg>
<trkpt lat="50.640357" lon="5.782565"><time>2026-05-07T19:36:49Z</time></trkpt>
<trkpt lat="50.639867" lon="5.780205"><time>2026-05-07T19:46:49Z</time></trkpt>
</trkseg></trk>
<trk>
<name>lhvba151</name>
<cmt>r</cmt>
<desc>Battice Sentier n°151 </desc>
<link href="https://chemins.be/battice/sentier/151"/><trkseg>
<trkpt lat="50.639867" lon="5.780205"><time>2026-05-07T19:46:49Z</time></trkpt>
<trkpt lat="50.639187" lon="5.774669"><time>2026-05-07T19:56:49Z</time></trkpt>
</trkseg></trk>
<trk>
<name>lhvba151</name>
<cmt>q</cmt>
<desc>Battice Sentier n°151 </desc>
<link href="https://chemins.be/battice/sentier/151"/><trkseg>
<trkpt lat="50.639187" lon="5.774669"><time>2026-05-07T19:56:49Z</time></trkpt>
<trkpt lat="50.637935" lon="5.771243"><time>2026-05-07T20:06:49Z</time></trkpt>
<trkpt lat="50.637794" lon="5.771143"><time>2026-05-07T20:16:49Z</time></trkpt>
</trkseg>
</trk>
<trk>
<name>lhvba152</name>
<cmt>q</cmt>
<desc>Battice Sentier n°152 </desc>
<link href="https://chemins.be/battice/sentier/152"/><trkseg>
<trkpt lat="50.639277" lon="5.775170"><time>2026-05-07T19:36:49Z</time></trkpt>
<trkpt lat="50.639518" lon="5.773131"><time>2026-05-07T19:46:49Z</time></trkpt>
<trkpt lat="50.639559" lon="5.770127"><time>2026-05-07T19:56:49Z</time></trkpt>
<trkpt lat="50.639472" lon="5.767717"><time>2026-05-07T20:06:49Z</time></trkpt>
<trkpt lat="50.638992" lon="5.764305"><time>2026-05-07T20:16:49Z</time></trkpt>
<trkpt lat="50.638742" lon="5.762596"><time>2026-05-07T20:26:49Z</time></trkpt>
</trkseg>
</trk>
<trk>
<name>lhvba153</name>
<cmt>q</cmt>
<desc>Battice Sentier n°153 </desc>
<link href="https://chemins.be/battice/sentier/153"/><trkseg>
<trkpt lat="50.639627" lon="5.763131"><time>2026-05-07T19:36:49Z</time></trkpt>
<trkpt lat="50.639019" lon="5.764440"><time>2026-05-07T19:46:49Z</time></trkpt>
<trkpt lat="50.638188" lon="5.765302"><time>2026-05-07T19:56:49Z</time></trkpt>
<trkpt lat="50.637046" lon="5.766487"><time>2026-05-07T20:06:49Z</time></trkpt>
</trkseg>
</trk>
<trk>
<name>lhvba154</name>
<cmt>q</cmt>
<desc>Battice Sentier n°154 </desc>
<link href="https://chemins.be/battice/sentier/154"/><trkseg>
<trkpt lat="50.638154" lon="5.775470"><time>2026-05-07T19:36:49Z</time></trkpt>
<trkpt lat="50.638358" lon="5.775363"><time>2026-05-07T19:46:49Z</time></trkpt>
<trkpt lat="50.639257" lon="5.775205"><time>2026-05-07T19:56:49Z</time></trkpt>
<trkpt lat="50.642255" lon="5.774590"><time>2026-05-07T20:06:49Z</time></trkpt>
</trkseg>
</trk>
<trk>
<name>lhvba155</name>
<cmt>q</cmt>
<desc>Battice Sentier n°155 </desc>
<link href="https://chemins.be/battice/sentier/155"/><trkseg>
<trkpt lat="50.639015" lon="5.781370"><time>2026-05-07T19:36:49Z</time></trkpt>
<trkpt lat="50.639724" lon="5.779349"><time>2026-05-07T19:46:49Z</time></trkpt>
</trkseg>
</trk>
<trk>
<name>lhvba157</name>
<cmt>v</cmt>
<desc>Battice Sentier n°157 </desc>
<link href="https://chemins.be/battice/sentier/157"/><trkseg>
<trkpt lat="50.635528" lon="5.783320"><time>2026-05-07T19:36:49Z</time></trkpt>
<trkpt lat="50.635812" lon="5.782975"><time>2026-05-07T19:46:49Z</time></trkpt>
<trkpt lat="50.635972" lon="5.782423"><time>2026-05-07T19:56:49Z</time></trkpt>
<trkpt lat="50.636096" lon="5.782317"><time>2026-05-07T20:06:49Z</time></trkpt>
</trkseg>
</trk>
<trk>
<name>lhvba158</name>
<cmt>q</cmt>
<desc>Battice Sentier n°158 </desc>
<link href="https://chemins.be/battice/sentier/158"/><trkseg>
<trkpt lat="50.632067" lon="5.773887"><time>2026-05-07T19:36:49Z</time></trkpt>
<trkpt lat="50.631702" lon="5.775174"><time>2026-05-07T19:46:49Z</time></trkpt>
<trkpt lat="50.631584" lon="5.776562"><time>2026-05-07T19:56:49Z</time></trkpt>
<trkpt lat="50.630809" lon="5.778175"><time>2026-05-07T20:06:49Z</time></trkpt>
<trkpt lat="50.629432" lon="5.780013"><time>2026-05-07T20:16:49Z</time></trkpt>
<trkpt lat="50.629082" lon="5.781004"><time>2026-05-07T20:26:49Z</time></trkpt>
</trkseg>
</trk>
<trk>
<name>lhvba159</name>
<cmt>q</cmt>
<desc>Battice Sentier n°159 </desc>
<link href="https://chemins.be/battice/sentier/159"/><trkseg>
<trkpt lat="50.630332" lon="5.768436"><time>2026-05-07T19:36:49Z</time></trkpt>
<trkpt lat="50.630464" lon="5.768626"><time>2026-05-07T19:46:49Z</time></trkpt>
<trkpt lat="50.630550" lon="5.769806"><time>2026-05-07T19:56:49Z</time></trkpt>
<trkpt lat="50.631147" lon="5.770407"><time>2026-05-07T20:06:49Z</time></trkpt>
<trkpt lat="50.631392" lon="5.770986"><time>2026-05-07T20:16:49Z</time></trkpt>
<trkpt lat="50.632387" lon="5.772234"><time>2026-05-07T20:26:49Z</time></trkpt>
<trkpt lat="50.632698" lon="5.772335"><time>2026-05-07T20:36:49Z</time></trkpt>
</trkseg>
</trk>
<trk>
<name>lhvba160</name>
<cmt>q</cmt>
<desc>Battice Sentier n°160 </desc>
<link href="https://chemins.be/battice/sentier/160"/><trkseg>
<trkpt lat="50.632360" lon="5.772281"><time>2026-05-07T19:36:49Z</time></trkpt>
<trkpt lat="50.631664" lon="5.772621"><time>2026-05-07T19:46:49Z</time></trkpt>
<trkpt lat="50.631131" lon="5.773129"><time>2026-05-07T19:56:49Z</time></trkpt>
</trkseg>
</trk>
<trk>
<name>lhvba161</name>
<cmt>v</cmt>
<desc>Battice Sentier n°161 </desc>
<link href="https://chemins.be/battice/sentier/161"/><trkseg>
<trkpt lat="50.629739" lon="5.771327"><time>2026-05-07T19:36:49Z</time></trkpt>
<trkpt lat="50.629447" lon="5.771028"><time>2026-05-07T19:46:49Z</time></trkpt>
</trkseg></trk>
<trk>
<name>lhvba161</name>
<cmt>q</cmt>
<desc>Battice Sentier n°161 </desc>
<link href="https://chemins.be/battice/sentier/161"/><trkseg>
<trkpt lat="50.629447" lon="5.771028"><time>2026-05-07T19:46:49Z</time></trkpt>
<trkpt lat="50.628150" lon="5.769551"><time>2026-05-07T19:56:49Z</time></trkpt>
<trkpt lat="50.627161" lon="5.768879"><time>2026-05-07T20:06:49Z</time></trkpt>
<trkpt lat="50.626650" lon="5.767435"><time>2026-05-07T20:16:49Z</time></trkpt>
</trkseg>
</trk>
<trk>
<name>lhvba162</name>
<cmt>v</cmt>
<desc>Battice Sentier n°162 </desc>
<link href="https://chemins.be/battice/sentier/162"/><trkseg>
<trkpt lat="50.625786" lon="5.771454"><time>2026-05-07T19:36:49Z</time></trkpt>
<trkpt lat="50.625940" lon="5.770819"><time>2026-05-07T19:46:49Z</time></trkpt>
</trkseg></trk>
<trk>
<name>lhvba162</name>
<cmt>q</cmt>
<desc>Battice Sentier n°162 </desc>
<link href="https://chemins.be/battice/sentier/162"/><trkseg>
<trkpt lat="50.625940" lon="5.770819"><time>2026-05-07T19:46:49Z</time></trkpt>
<trkpt lat="50.626281" lon="5.769566"><time>2026-05-07T19:56:49Z</time></trkpt>
<trkpt lat="50.627184" lon="5.768786"><time>2026-05-07T20:06:49Z</time></trkpt>
</trkseg>
</trk>
<trk>
<name>lhvba163</name>
<cmt>d</cmt>
<desc>Battice Sentier n°163 </desc>
<link href="https://chemins.be/battice/sentier/163"/><trkseg>
<trkpt lat="50.626944" lon="5.781291"><time>2026-05-07T19:36:49Z</time></trkpt>
<trkpt lat="50.627272" lon="5.782700"><time>2026-05-07T19:46:49Z</time></trkpt>
</trkseg></trk>
<trk>
<name>lhvba163</name>
<cmt>r</cmt>
<desc>Battice Sentier n°163 </desc>
<link href="https://chemins.be/battice/sentier/163"/><trkseg>
<trkpt lat="50.627272" lon="5.782700"><time>2026-05-07T19:46:49Z</time></trkpt>
<trkpt lat="50.627163" lon="5.782921"><time>2026-05-07T19:56:49Z</time></trkpt>
</trkseg></trk>
<trk>
<name>lhvba163</name>
<cmt>q</cmt>
<desc>Battice Sentier n°163 </desc>
<link href="https://chemins.be/battice/sentier/163"/><trkseg>
<trkpt lat="50.627163" lon="5.782921"><time>2026-05-07T19:56:49Z</time></trkpt>
<trkpt lat="50.627885" lon="5.783930"><time>2026-05-07T20:06:49Z</time></trkpt>
<trkpt lat="50.627730" lon="5.784681"><time>2026-05-07T20:16:49Z</time></trkpt>
<trkpt lat="50.627853" lon="5.785367"><time>2026-05-07T20:26:49Z</time></trkpt>
<trkpt lat="50.627889" lon="5.785975"><time>2026-05-07T20:36:49Z</time></trkpt>
</trkseg>
</trk>
<trk>
<name>lhvba164</name>
<cmt>q</cmt>
<desc>Battice Sentier n°164 </desc>
<link href="https://chemins.be/battice/sentier/164"/><trkseg>
<trkpt lat="50.622831" lon="5.779987"><time>2026-05-07T19:36:49Z</time></trkpt>
<trkpt lat="50.620794" lon="5.782235"><time>2026-05-07T19:46:49Z</time></trkpt>
<trkpt lat="50.620598" lon="5.782184"><time>2026-05-07T19:56:49Z</time></trkpt>
</trkseg>
</trk>
<trk>
<name>lhvba165</name>
<cmt>v</cmt>
<desc>Battice Sentier n°165 </desc>
<link href="https://chemins.be/battice/sentier/165"/><trkseg>
<trkpt lat="50.618839" lon="5.776647"><time>2026-05-07T19:36:49Z</time></trkpt>
<trkpt lat="50.618376" lon="5.776733"><time>2026-05-07T19:46:49Z</time></trkpt>
</trkseg></trk>
<trk>
<name>lhvba165</name>
<cmt>q</cmt>
<desc>Battice Sentier n°165 </desc>
<link href="https://chemins.be/battice/sentier/165"/><trkseg>
<trkpt lat="50.618376" lon="5.776733"><time>2026-05-07T19:46:49Z</time></trkpt>
<trkpt lat="50.618226" lon="5.776318"><time>2026-05-07T19:56:49Z</time></trkpt>
<trkpt lat="50.617568" lon="5.775738"><time>2026-05-07T20:06:49Z</time></trkpt>
</trkseg>
</trk>
<trk>
<name>lhvba166</name>
<cmt>q</cmt>
<desc>Battice Sentier n°166 </desc>
<link href="https://chemins.be/battice/sentier/166"/><trkseg>
<trkpt lat="50.613270" lon="5.778964"><time>2026-05-07T19:36:49Z</time></trkpt>
<trkpt lat="50.612049" lon="5.774594"><time>2026-05-07T19:46:49Z</time></trkpt>
<trkpt lat="50.611741" lon="5.774172"><time>2026-05-07T19:56:49Z</time></trkpt>
<trkpt lat="50.611468" lon="5.772913"><time>2026-05-07T20:06:49Z</time></trkpt>
<trkpt lat="50.610939" lon="5.771773"><time>2026-05-07T20:16:49Z</time></trkpt>
<trkpt lat="50.611155" lon="5.771505"><time>2026-05-07T20:26:49Z</time></trkpt>
<trkpt lat="50.611291" lon="5.770407"><time>2026-05-07T20:36:49Z</time></trkpt>
</trkseg>
</trk>
<trk>
<name>lhvba167</name>
<cmt>q</cmt>
<desc>Battice Sentier n°167 </desc>
<link href="https://chemins.be/battice/sentier/167"/><trkseg>
<trkpt lat="50.614528" lon="5.781223"><time>2026-05-07T19:36:49Z</time></trkpt>
<trkpt lat="50.613257" lon="5.782367"><time>2026-05-07T19:46:49Z</time></trkpt>
<trkpt lat="50.612368" lon="5.782582"><time>2026-05-07T19:56:49Z</time></trkpt>
</trkseg>
</trk>
<trk>
<name>lhvba168</name>
<cmt>q</cmt>
<desc>Battice Sentier n°168 </desc>
<link href="https://chemins.be/battice/sentier/168"/><trkseg>
<trkpt lat="50.614343" lon="5.797826"><time>2026-05-07T19:36:49Z</time></trkpt>
<trkpt lat="50.615517" lon="5.796273"><time>2026-05-07T19:46:49Z</time></trkpt>
<trkpt lat="50.617332" lon="5.795673"><time>2026-05-07T19:56:49Z</time></trkpt>
<trkpt lat="50.618281" lon="5.794893"><time>2026-05-07T20:06:49Z</time></trkpt>
</trkseg>
</trk>
<trk>
<name>lhvba169</name>
<cmt>q</cmt>
<desc>Battice Sentier n°169 </desc>
<link href="https://chemins.be/battice/sentier/169"/><trkseg>
<trkpt lat="50.617772" lon="5.793076"><time>2026-05-07T19:36:49Z</time></trkpt>
<trkpt lat="50.618235" lon="5.792449"><time>2026-05-07T19:46:49Z</time></trkpt>
<trkpt lat="50.618480" lon="5.791179"><time>2026-05-07T19:56:49Z</time></trkpt>
</trkseg>
</trk>
<trk>
<name>lhvba170</name>
<cmt>q</cmt>
<desc>Battice Sentier n°170 Rue d'Elvaux</desc>
<link href="https://chemins.be/battice/sentier/170"/><trkseg>
<trkpt lat="50.630092" lon="5.798925"><time>2026-05-07T19:36:49Z</time></trkpt>
<trkpt lat="50.629580" lon="5.799172"><time>2026-05-07T19:46:49Z</time></trkpt>
<trkpt lat="50.628863" lon="5.799783"><time>2026-05-07T19:56:49Z</time></trkpt>
<trkpt lat="50.628499" lon="5.799910"><time>2026-05-07T20:06:49Z</time></trkpt>
<trkpt lat="50.628067" lon="5.799830"><time>2026-05-07T20:16:49Z</time></trkpt>
<trkpt lat="50.626705" lon="5.799158"><time>2026-05-07T20:26:49Z</time></trkpt>
</trkseg></trk>
<trk>
<name>lhvba170</name>
<cmt>r</cmt>
<desc>Battice Sentier n°170 Rue d'Elvaux</desc>
<link href="https://chemins.be/battice/sentier/170"/><trkseg>
<trkpt lat="50.626705" lon="5.799158"><time>2026-05-07T20:26:49Z</time></trkpt>
<trkpt lat="50.625121" lon="5.798335"><time>2026-05-07T20:36:49Z</time></trkpt>
</trkseg></trk>
<trk>
<name>lhvba170</name>
<cmt>q</cmt>
<desc>Battice Sentier n°170 Rue d'Elvaux</desc>
<link href="https://chemins.be/battice/sentier/170"/><trkseg>
<trkpt lat="50.625121" lon="5.798335"><time>2026-05-07T20:36:49Z</time></trkpt>
<trkpt lat="50.623914" lon="5.795875"><time>2026-05-07T20:46:49Z</time></trkpt>
<trkpt lat="50.623538" lon="5.795488"><time>2026-05-07T20:56:49Z</time></trkpt>
<trkpt lat="50.622721" lon="5.793493"><time>2026-05-07T21:06:49Z</time></trkpt>
<trkpt lat="50.621718" lon="5.791998"><time>2026-05-07T21:16:49Z</time></trkpt>
</trkseg>
</trk>
<trk>
<name>lhvba171</name>
<cmt>q</cmt>
<desc>Battice Sentier n°171 </desc>
<link href="https://chemins.be/battice/sentier/171"/><trkseg>
<trkpt lat="50.616912" lon="5.791454"><time>2026-05-07T19:36:49Z</time></trkpt>
<trkpt lat="50.619210" lon="5.790913"><time>2026-05-07T19:46:49Z</time></trkpt>
</trkseg>
</trk>
<trk>
<name>lhvba172</name>
<cmt>q</cmt>
<desc>Battice Sentier n°172 En Wez / Thier Martin / Sur l'Agaux</desc>
<link href="https://chemins.be/battice/sentier/172"/><trkseg>
<trkpt lat="50.628252" lon="5.786569"><time>2026-05-07T19:36:49Z</time></trkpt>
<trkpt lat="50.627322" lon="5.787964"><time>2026-05-07T19:46:49Z</time></trkpt>
<trkpt lat="50.627213" lon="5.789995"><time>2026-05-07T19:56:49Z</time></trkpt>
</trkseg></trk>
<trk>
<name>lhvba172</name>
<cmt>r</cmt>
<desc>Battice Sentier n°172 En Wez / Thier Martin / Sur l'Agaux</desc>
<link href="https://chemins.be/battice/sentier/172"/><trkseg>
<trkpt lat="50.627213" lon="5.789995"><time>2026-05-07T19:56:49Z</time></trkpt>
<trkpt lat="50.627397" lon="5.791349"><time>2026-05-07T20:06:49Z</time></trkpt>
</trkseg></trk>
<trk>
<name>lhvba172</name>
<cmt>q</cmt>
<desc>Battice Sentier n°172 En Wez / Thier Martin / Sur l'Agaux</desc>
<link href="https://chemins.be/battice/sentier/172"/><trkseg>
<trkpt lat="50.627397" lon="5.791349"><time>2026-05-07T20:06:49Z</time></trkpt>
<trkpt lat="50.627481" lon="5.791969"><time>2026-05-07T20:16:49Z</time></trkpt>
<trkpt lat="50.627436" lon="5.792913"><time>2026-05-07T20:26:49Z</time></trkpt>
<trkpt lat="50.627826" lon="5.793807"><time>2026-05-07T20:36:49Z</time></trkpt>
<trkpt lat="50.627898" lon="5.794637"><time>2026-05-07T20:46:49Z</time></trkpt>
<trkpt lat="50.627735" lon="5.794780"><time>2026-05-07T20:56:49Z</time></trkpt>
<trkpt lat="50.628366" lon="5.796905"><time>2026-05-07T21:06:49Z</time></trkpt>
<trkpt lat="50.628657" lon="5.799673"><time>2026-05-07T21:16:49Z</time></trkpt>
</trkseg></trk>
<trk>
<name>lhvba172</name>
<cmt>r</cmt>
<desc>Battice Sentier n°172 En Wez / Thier Martin / Sur l'Agaux</desc>
<link href="https://chemins.be/battice/sentier/172"/><trkseg>
<trkpt lat="50.628657" lon="5.799673"><time>2026-05-07T21:16:49Z</time></trkpt>
<trkpt lat="50.628988" lon="5.799962"><time>2026-05-07T21:26:49Z</time></trkpt>
</trkseg></trk>
<trk>
<name>lhvba172</name>
<cmt>v</cmt>
<desc>Battice Sentier n°172 En Wez / Thier Martin / Sur l'Agaux</desc>
<link href="https://chemins.be/battice/sentier/172"/><trkseg>
<trkpt lat="50.628988" lon="5.799962"><time>2026-05-07T21:26:49Z</time></trkpt>
<trkpt lat="50.629477" lon="5.801303"><time>2026-05-07T21:36:49Z</time></trkpt>
<trkpt lat="50.630280" lon="5.802598"><time>2026-05-07T21:46:49Z</time></trkpt>
<trkpt lat="50.630720" lon="5.803814"><time>2026-05-07T21:56:49Z</time></trkpt>
</trkseg></trk>
<trk>
<name>lhvba172</name>
<cmt>r</cmt>
<desc>Battice Sentier n°172 En Wez / Thier Martin / Sur l'Agaux</desc>
<link href="https://chemins.be/battice/sentier/172"/><trkseg>
<trkpt lat="50.630720" lon="5.803814"><time>2026-05-07T21:56:49Z</time></trkpt>
<trkpt lat="50.630943" lon="5.805531"><time>2026-05-07T22:06:49Z</time></trkpt>
<trkpt lat="50.631564" lon="5.806103"><time>2026-05-07T22:16:49Z</time></trkpt>
</trkseg></trk>
<trk>
<name>lhvba172</name>
<cmt>d</cmt>
<desc>Battice Sentier n°172 En Wez / Thier Martin / Sur l'Agaux</desc>
<link href="https://chemins.be/battice/sentier/172"/><trkseg>
<trkpt lat="50.631564" lon="5.806103"><time>2026-05-07T22:16:49Z</time></trkpt>
<trkpt lat="50.632242" lon="5.806622"><time>2026-05-07T22:26:49Z</time></trkpt>
<trkpt lat="50.632691" lon="5.806819"><time>2026-05-07T22:36:49Z</time></trkpt>
<trkpt lat="50.633354" lon="5.806869"><time>2026-05-07T22:46:49Z</time></trkpt>
<trkpt lat="50.633660" lon="5.807137"><time>2026-05-07T22:56:49Z</time></trkpt>
<trkpt lat="50.633748" lon="5.807334"><time>2026-05-07T23:06:49Z</time></trkpt>
</trkseg>
</trk>
<trk>
<name>lhvba174</name>
<cmt>v</cmt>
<desc>Battice Sentier n°174 </desc>
<link href="https://chemins.be/battice/sentier/174"/><trkseg>
<trkpt lat="50.630902" lon="5.805563"><time>2026-05-07T19:36:49Z</time></trkpt>
<trkpt lat="50.629753" lon="5.806136"><time>2026-05-07T19:46:49Z</time></trkpt>
<trkpt lat="50.628919" lon="5.806634"><time>2026-05-07T19:56:49Z</time></trkpt>
<trkpt lat="50.628752" lon="5.807053"><time>2026-05-07T20:06:49Z</time></trkpt>
<trkpt lat="50.627814" lon="5.806544"><time>2026-05-07T20:16:49Z</time></trkpt>
<trkpt lat="50.625658" lon="5.804230"><time>2026-05-07T20:26:49Z</time></trkpt>
</trkseg>
</trk>
<trk>
<name>lhvba175</name>
<cmt>q</cmt>
<desc>Battice Sentier n°175 </desc>
<link href="https://chemins.be/battice/sentier/175"/><trkseg>
<trkpt lat="50.631807" lon="5.805446"><time>2026-05-07T19:36:49Z</time></trkpt>
<trkpt lat="50.632437" lon="5.803464"><time>2026-05-07T19:46:49Z</time></trkpt>
<trkpt lat="50.632753" lon="5.802953"><time>2026-05-07T19:56:49Z</time></trkpt>
</trkseg>
</trk>
<trk>
<name>lhvba176</name>
<cmt>v</cmt>
<desc>Battice Sentier n°176 </desc>
<link href="https://chemins.be/battice/sentier/176"/><trkseg>
<trkpt lat="50.629002" lon="5.809393"><time>2026-05-07T19:36:49Z</time></trkpt>
<trkpt lat="50.628803" lon="5.808765"><time>2026-05-07T19:46:49Z</time></trkpt>
<trkpt lat="50.628827" lon="5.808285"><time>2026-05-07T19:56:49Z</time></trkpt>
<trkpt lat="50.628751" lon="5.807152"><time>2026-05-07T20:06:49Z</time></trkpt>
</trkseg>
</trk>
<trk>
<name>lhvba177</name>
<cmt>q</cmt>
<desc>Battice Sentier n°177 </desc>
<link href="https://chemins.be/battice/sentier/177"/><trkseg>
<trkpt lat="50.625380" lon="5.804918"><time>2026-05-07T19:36:49Z</time></trkpt>
<trkpt lat="50.625637" lon="5.806824"><time>2026-05-07T19:46:49Z</time></trkpt>
<trkpt lat="50.625378" lon="5.807951"><time>2026-05-07T19:56:49Z</time></trkpt>
</trkseg>
</trk>
<trk>
<name>lhvba178</name>
<cmt>d</cmt>
<desc>Battice Sentier n°178 Vinâve</desc>
<link href="https://chemins.be/battice/sentier/178"/><trkseg>
<trkpt lat="50.622198" lon="5.808848"><time>2026-05-07T19:36:49Z</time></trkpt>
<trkpt lat="50.620724" lon="5.809935"><time>2026-05-07T19:46:49Z</time></trkpt>
<trkpt lat="50.619775" lon="5.811158"><time>2026-05-07T19:56:49Z</time></trkpt>
</trkseg></trk>
<trk>
<name>lhvba178</name>
<cmt>r</cmt>
<desc>Battice Sentier n°178 Vinâve</desc>
<link href="https://chemins.be/battice/sentier/178"/><trkseg>
<trkpt lat="50.619775" lon="5.811158"><time>2026-05-07T19:56:49Z</time></trkpt>
<trkpt lat="50.620057" lon="5.812302"><time>2026-05-07T20:06:49Z</time></trkpt>
</trkseg></trk>
<trk>
<name>lhvba178</name>
<cmt>d</cmt>
<desc>Battice Sentier n°178 Vinâve</desc>
<link href="https://chemins.be/battice/sentier/178"/><trkseg>
<trkpt lat="50.620057" lon="5.812302"><time>2026-05-07T20:06:49Z</time></trkpt>
<trkpt lat="50.618731" lon="5.813103"><time>2026-05-07T20:16:49Z</time></trkpt>
<trkpt lat="50.618264" lon="5.814026"><time>2026-05-07T20:26:49Z</time></trkpt>
<trkpt lat="50.617797" lon="5.814655"><time>2026-05-07T20:36:49Z</time></trkpt>
</trkseg>
</trk>
<trk>
<name>lhvba179</name>
<cmt>d</cmt>
<desc>Battice Sentier n°179 </desc>
<link href="https://chemins.be/battice/sentier/179"/><trkseg>
<trkpt lat="50.617745" lon="5.809195"><time>2026-05-07T19:36:49Z</time></trkpt>
<trkpt lat="50.616688" lon="5.811263"><time>2026-05-07T19:46:49Z</time></trkpt>
</trkseg>
</trk>
<trk>
<name>lhvba18</name>
<cmt>q</cmt>
<desc>Battice Chemin n°18 </desc>
<link href="https://chemins.be/battice/chemin/18"/><trkseg>
<trkpt lat="50.633061" lon="5.832140"><time>2026-05-07T19:36:49Z</time></trkpt>
<trkpt lat="50.633470" lon="5.834876"><time>2026-05-07T19:46:49Z</time></trkpt>
<trkpt lat="50.633741" lon="5.836689"><time>2026-05-07T19:56:49Z</time></trkpt>
</trkseg></trk>
<trk>
<name>lhvba18</name>
<cmt>s</cmt>
<desc>Battice Chemin n°18 </desc>
<link href="https://chemins.be/battice/chemin/18"/><trkseg>
<trkpt lat="50.633741" lon="5.836689"><time>2026-05-07T19:56:49Z</time></trkpt>
<trkpt lat="50.633660" lon="5.838477"><time>2026-05-07T20:06:49Z</time></trkpt>
</trkseg>
</trk>
<trk>
<name>lhvba181</name>
<cmt>v</cmt>
<desc>Battice Sentier n°181 </desc>
<link href="https://chemins.be/battice/sentier/181"/><trkseg>
<trkpt lat="50.628984" lon="5.820320"><time>2026-05-07T19:36:49Z</time></trkpt>
<trkpt lat="50.630514" lon="5.821639"><time>2026-05-07T19:46:49Z</time></trkpt>
</trkseg>
</trk>
<trk>
<name>lhvba182</name>
<cmt>q</cmt>
<desc>Battice Sentier n°182 </desc>
<link href="https://chemins.be/battice/sentier/182"/><trkseg>
<trkpt lat="50.629170" lon="5.820525"><time>2026-05-07T19:36:49Z</time></trkpt>
<trkpt lat="50.628848" lon="5.820993"><time>2026-05-07T19:46:49Z</time></trkpt>
<trkpt lat="50.628201" lon="5.821111"><time>2026-05-07T19:56:49Z</time></trkpt>
</trkseg>
</trk>
<trk>
<name>lhvba183</name>
<cmt>q</cmt>
<desc>Battice Sentier n°183 </desc>
<link href="https://chemins.be/battice/sentier/183"/><trkseg>
<trkpt lat="50.627398" lon="5.820332"><time>2026-05-07T19:36:49Z</time></trkpt>
<trkpt lat="50.628195" lon="5.821100"><time>2026-05-07T19:46:49Z</time></trkpt>
<trkpt lat="50.628986" lon="5.822524"><time>2026-05-07T19:56:49Z</time></trkpt>
</trkseg>
</trk>
<trk>
<name>lhvba184</name>
<cmt>v</cmt>
<desc>Battice Sentier n°184 Hautregard</desc>
<link href="https://chemins.be/battice/sentier/184"/><trkseg>
<trkpt lat="50.631885" lon="5.832822"><time>2026-05-07T19:36:49Z</time></trkpt>
<trkpt lat="50.631904" lon="5.832695"><time>2026-05-07T19:46:49Z</time></trkpt>
<trkpt lat="50.631871" lon="5.832454"><time>2026-05-07T19:56:49Z</time></trkpt>
<trkpt lat="50.631855" lon="5.832312"><time>2026-05-07T20:06:49Z</time></trkpt>
<trkpt lat="50.631830" lon="5.832142"><time>2026-05-07T20:16:49Z</time></trkpt>
<trkpt lat="50.631735" lon="5.831842"><time>2026-05-07T20:26:49Z</time></trkpt>
<trkpt lat="50.631648" lon="5.831585"><time>2026-05-07T20:36:49Z</time></trkpt>
<trkpt lat="50.631473" lon="5.831226"><time>2026-05-07T20:46:49Z</time></trkpt>
<trkpt lat="50.631438" lon="5.831154"><time>2026-05-07T20:56:49Z</time></trkpt>
<trkpt lat="50.631403" lon="5.831096"><time>2026-05-07T21:06:49Z</time></trkpt>
<trkpt lat="50.631304" lon="5.831079"><time>2026-05-07T21:16:49Z</time></trkpt>
<trkpt lat="50.630831" lon="5.830768"><time>2026-05-07T21:26:49Z</time></trkpt>
<trkpt lat="50.630475" lon="5.830530"><time>2026-05-07T21:36:49Z</time></trkpt>
<trkpt lat="50.630182" lon="5.830224"><time>2026-05-07T21:46:49Z</time></trkpt>
<trkpt lat="50.630182" lon="5.830182"><time>2026-05-07T21:56:49Z</time></trkpt>
<trkpt lat="50.630459" lon="5.829597"><time>2026-05-07T22:06:49Z</time></trkpt>
<trkpt lat="50.629327" lon="5.828798"><time>2026-05-07T22:16:49Z</time></trkpt>
<trkpt lat="50.629421" lon="5.828533"><time>2026-05-07T22:26:49Z</time></trkpt>
<trkpt lat="50.628817" lon="5.827906"><time>2026-05-07T22:36:49Z</time></trkpt>
<trkpt lat="50.628398" lon="5.825781"><time>2026-05-07T22:46:49Z</time></trkpt>
</trkseg></trk>
<trk>
<name>lhvba184</name>
<cmt>r</cmt>
<desc>Battice Sentier n°184 Hautregard</desc>
<link href="https://chemins.be/battice/sentier/184"/><trkseg>
<trkpt lat="50.628398" lon="5.825781"><time>2026-05-07T22:46:49Z</time></trkpt>
<trkpt lat="50.627944" lon="5.824733"><time>2026-05-07T22:56:49Z</time></trkpt>
</trkseg>
</trk>
<trk>
<name>lhvba185</name>
<cmt>v</cmt>
<desc>Battice Sentier n°185 Sentier n°15</desc>
<link href="https://chemins.be/battice/sentier/185"/><trkseg>
<trkpt lat="50.633858" lon="5.830296"><time>2026-05-07T19:36:49Z</time></trkpt>
<trkpt lat="50.633724" lon="5.830235"><time>2026-05-07T19:46:49Z</time></trkpt>
<trkpt lat="50.633617" lon="5.830189"><time>2026-05-07T19:56:49Z</time></trkpt>
<trkpt lat="50.633285" lon="5.830137"><time>2026-05-07T20:06:49Z</time></trkpt>
<trkpt lat="50.633103" lon="5.830301"><time>2026-05-07T20:16:49Z</time></trkpt>
<trkpt lat="50.633076" lon="5.830328"><time>2026-05-07T20:26:49Z</time></trkpt>
<trkpt lat="50.631956" lon="5.830011"><time>2026-05-07T20:36:49Z</time></trkpt>
<trkpt lat="50.631638" lon="5.830255"><time>2026-05-07T20:46:49Z</time></trkpt>
<trkpt lat="50.631574" lon="5.830352"><time>2026-05-07T20:56:49Z</time></trkpt>
<trkpt lat="50.631558" lon="5.830917"><time>2026-05-07T21:06:49Z</time></trkpt>
<trkpt lat="50.631451" lon="5.831099"><time>2026-05-07T21:16:49Z</time></trkpt>
<trkpt lat="50.629270" lon="5.831722"><time>2026-05-07T21:26:49Z</time></trkpt>
<trkpt lat="50.629197" lon="5.831930"><time>2026-05-07T21:36:49Z</time></trkpt>
<trkpt lat="50.629292" lon="5.832116"><time>2026-05-07T21:46:49Z</time></trkpt>
<trkpt lat="50.629258" lon="5.832280"><time>2026-05-07T21:56:49Z</time></trkpt>
</trkseg>
</trk>
<trk>
<name>lhvba186</name>
<cmt>q</cmt>
<desc>Battice Sentier n°186 </desc>
<link href="https://chemins.be/battice/sentier/186"/><trkseg>
<trkpt lat="50.628833" lon="5.827916"><time>2026-05-07T19:36:49Z</time></trkpt>
<trkpt lat="50.628729" lon="5.828081"><time>2026-05-07T19:46:49Z</time></trkpt>
<trkpt lat="50.626950" lon="5.827666"><time>2026-05-07T19:56:49Z</time></trkpt>
<trkpt lat="50.625312" lon="5.826758"><time>2026-05-07T20:06:49Z</time></trkpt>
<trkpt lat="50.625131" lon="5.826507"><time>2026-05-07T20:16:49Z</time></trkpt>
</trkseg>
</trk>
<trk>
<name>lhvba187</name>
<cmt>s</cmt>
<desc>Battice Chemin n°187 </desc>
<link href="https://chemins.be/battice/chemin/187"/><trkseg>
<trkpt lat="50.624497" lon="5.832514"><time>2026-05-07T19:36:49Z</time></trkpt>
<trkpt lat="50.625057" lon="5.832320"><time>2026-05-07T19:46:49Z</time></trkpt>
<trkpt lat="50.625266" lon="5.832978"><time>2026-05-07T19:56:49Z</time></trkpt>
</trkseg>
</trk>
<trk>
<name>lhvba188</name>
<cmt>q</cmt>
<desc>Battice Sentier n°188 </desc>
<link href="https://chemins.be/battice/sentier/188"/><trkseg>
<trkpt lat="50.626117" lon="5.831981"><time>2026-05-07T19:36:49Z</time></trkpt>
<trkpt lat="50.625119" lon="5.832467"><time>2026-05-07T19:46:49Z</time></trkpt>
</trkseg>
</trk>
<trk>
<name>lhvba189</name>
<cmt>v</cmt>
<desc>Battice Sentier n°189 </desc>
<link href="https://chemins.be/battice/sentier/189"/><trkseg>
<trkpt lat="50.632028" lon="5.821930"><time>2026-05-07T19:36:49Z</time></trkpt>
<trkpt lat="50.632255" lon="5.823026"><time>2026-05-07T19:46:49Z</time></trkpt>
<trkpt lat="50.632657" lon="5.823327"><time>2026-05-07T19:56:49Z</time></trkpt>
<trkpt lat="50.632929" lon="5.823777"><time>2026-05-07T20:06:49Z</time></trkpt>
<trkpt lat="50.633136" lon="5.824061"><time>2026-05-07T20:16:49Z</time></trkpt>
<trkpt lat="50.633462" lon="5.824533"><time>2026-05-07T20:26:49Z</time></trkpt>
</trkseg>
</trk>
<trk>
<name>lhvba19</name>
<cmt>d</cmt>
<desc>Battice Chemin n°19 </desc>
<link href="https://chemins.be/battice/chemin/19"/><trkseg>
<trkpt lat="50.630221" lon="5.849976"><time>2026-05-07T19:36:49Z</time></trkpt>
<trkpt lat="50.630466" lon="5.849160"><time>2026-05-07T19:46:49Z</time></trkpt>
<trkpt lat="50.631142" lon="5.846254"><time>2026-05-07T19:56:49Z</time></trkpt>
<trkpt lat="50.631859" lon="5.845287"><time>2026-05-07T20:06:49Z</time></trkpt>
<trkpt lat="50.632358" lon="5.845023"><time>2026-05-07T20:16:49Z</time></trkpt>
</trkseg></trk>
<trk>
<name>lhvba19</name>
<cmt>q</cmt>
<desc>Battice Chemin n°19 </desc>
<link href="https://chemins.be/battice/chemin/19"/><trkseg>
<trkpt lat="50.632358" lon="5.845023"><time>2026-05-07T20:16:49Z</time></trkpt>
<trkpt lat="50.632328" lon="5.843085"><time>2026-05-07T20:26:49Z</time></trkpt>
<trkpt lat="50.633774" lon="5.838751"><time>2026-05-07T20:36:49Z</time></trkpt>
</trkseg>
</trk>
<trk>
<name>lhvba190</name>
<cmt>s</cmt>
<desc>Battice Sentier n°190 </desc>
<link href="https://chemins.be/battice/sentier/190"/><trkseg>
<trkpt lat="50.633198" lon="5.824771"><time>2026-05-07T19:36:49Z</time></trkpt>
<trkpt lat="50.633551" lon="5.824056"><time>2026-05-07T19:46:49Z</time></trkpt>
<trkpt lat="50.633701" lon="5.823204"><time>2026-05-07T19:56:49Z</time></trkpt>
<trkpt lat="50.634209" lon="5.822883"><time>2026-05-07T20:06:49Z</time></trkpt>
<trkpt lat="50.634772" lon="5.822103"><time>2026-05-07T20:16:49Z</time></trkpt>
</trkseg>
</trk>
<trk>
<name>lhvba191</name>
<cmt>q</cmt>
<desc>Battice Sentier n°191 </desc>
<link href="https://chemins.be/battice/sentier/191"/><trkseg>
<trkpt lat="50.633927" lon="5.830466"><time>2026-05-07T19:36:49Z</time></trkpt>
<trkpt lat="50.634517" lon="5.833992"><time>2026-05-07T19:46:49Z</time></trkpt>
<trkpt lat="50.634633" lon="5.834758"><time>2026-05-07T19:56:49Z</time></trkpt>
</trkseg></trk>
<trk>
<name>lhvba191</name>
<cmt>s</cmt>
<desc>Battice Sentier n°191 </desc>
<link href="https://chemins.be/battice/sentier/191"/><trkseg>
<trkpt lat="50.634633" lon="5.834758"><time>2026-05-07T19:56:49Z</time></trkpt>
<trkpt lat="50.634980" lon="5.837046"><time>2026-05-07T20:06:49Z</time></trkpt>
</trkseg>
</trk>
<trk>
<name>lhvba192</name>
<cmt>v</cmt>
<desc>Battice Sentier n°192 </desc>
<link href="https://chemins.be/battice/sentier/192"/><trkseg>
<trkpt lat="50.631690" lon="5.834276"><time>2026-05-07T19:36:49Z</time></trkpt>
<trkpt lat="50.631514" lon="5.834246"><time>2026-05-07T19:46:49Z</time></trkpt>
</trkseg></trk>
<trk>
<name>lhvba192</name>
<cmt>q</cmt>
<desc>Battice Sentier n°192 </desc>
<link href="https://chemins.be/battice/sentier/192"/><trkseg>
<trkpt lat="50.631514" lon="5.834246"><time>2026-05-07T19:46:49Z</time></trkpt>
<trkpt lat="50.631082" lon="5.834154"><time>2026-05-07T19:56:49Z</time></trkpt>
<trkpt lat="50.630650" lon="5.834360"><time>2026-05-07T20:06:49Z</time></trkpt>
<trkpt lat="50.630324" lon="5.834515"><time>2026-05-07T20:16:49Z</time></trkpt>
</trkseg>
</trk>
<trk>
<name>lhvba193</name>
<cmt>q</cmt>
<desc>Battice Sentier n°193 </desc>
<link href="https://chemins.be/battice/sentier/193"/><trkseg>
<trkpt lat="50.632249" lon="5.834801"><time>2026-05-07T19:36:49Z</time></trkpt>
<trkpt lat="50.633061" lon="5.835838"><time>2026-05-07T19:46:49Z</time></trkpt>
<trkpt lat="50.633277" lon="5.836764"><time>2026-05-07T19:56:49Z</time></trkpt>
</trkseg></trk>
<trk>
<name>lhvba193</name>
<cmt>s</cmt>
<desc>Battice Sentier n°193 </desc>
<link href="https://chemins.be/battice/sentier/193"/><trkseg>
<trkpt lat="50.633277" lon="5.836764"><time>2026-05-07T19:56:49Z</time></trkpt>
<trkpt lat="50.633632" lon="5.838291"><time>2026-05-07T20:06:49Z</time></trkpt>
</trkseg>
</trk>
<trk>
<name>lhvba194</name>
<cmt>q</cmt>
<desc>Battice Sentier n°194 </desc>
<link href="https://chemins.be/battice/sentier/194"/><trkseg>
<trkpt lat="50.633696" lon="5.838670"><time>2026-05-07T19:36:49Z</time></trkpt>
<trkpt lat="50.635002" lon="5.840043"><time>2026-05-07T19:46:49Z</time></trkpt>
</trkseg></trk>
<trk>
<name>lhvba194</name>
<cmt>s</cmt>
<desc>Battice Sentier n°194 </desc>
<link href="https://chemins.be/battice/sentier/194"/><trkseg>
<trkpt lat="50.635002" lon="5.840043"><time>2026-05-07T19:46:49Z</time></trkpt>
<trkpt lat="50.636529" lon="5.841540"><time>2026-05-07T19:56:49Z</time></trkpt>
<trkpt lat="50.636910" lon="5.840753"><time>2026-05-07T20:06:49Z</time></trkpt>
<trkpt lat="50.638326" lon="5.842135"><time>2026-05-07T20:16:49Z</time></trkpt>
</trkseg></trk>
<trk>
<name>lhvba194</name>
<cmt>q</cmt>
<desc>Battice Sentier n°194 </desc>
<link href="https://chemins.be/battice/sentier/194"/><trkseg>
<trkpt lat="50.638326" lon="5.842135"><time>2026-05-07T20:16:49Z</time></trkpt>
<trkpt lat="50.638933" lon="5.842727"><time>2026-05-07T20:26:49Z</time></trkpt>
<trkpt lat="50.641047" lon="5.842742"><time>2026-05-07T20:36:49Z</time></trkpt>
</trkseg>
</trk>
<trk>
<name>lhvba195</name>
<cmt>s</cmt>
<desc>Battice Sentier n°195 </desc>
<link href="https://chemins.be/battice/sentier/195"/><trkseg>
<trkpt lat="50.637269" lon="5.841226"><time>2026-05-07T19:36:49Z</time></trkpt>
<trkpt lat="50.638195" lon="5.840118"><time>2026-05-07T19:46:49Z</time></trkpt>
<trkpt lat="50.638519" lon="5.839456"><time>2026-05-07T19:56:49Z</time></trkpt>
<trkpt lat="50.638465" lon="5.837975"><time>2026-05-07T20:06:49Z</time></trkpt>
</trkseg>
</trk>
<trk>
<name>lhvba198</name>
<cmt>d</cmt>
<desc>Battice Sentier n°198 </desc>
<link href="https://chemins.be/battice/sentier/198"/><trkseg>
<trkpt lat="50.643163" lon="5.830538"><time>2026-05-07T19:36:49Z</time></trkpt>
<trkpt lat="50.641362" lon="5.830409"><time>2026-05-07T19:46:49Z</time></trkpt>
</trkseg></trk>
<trk>
<name>lhvba198</name>
<cmt>v</cmt>
<desc>Battice Sentier n°198 </desc>
<link href="https://chemins.be/battice/sentier/198"/><trkseg>
<trkpt lat="50.641362" lon="5.830409"><time>2026-05-07T19:46:49Z</time></trkpt>
<trkpt lat="50.641113" lon="5.830967"><time>2026-05-07T19:56:49Z</time></trkpt>
<trkpt lat="50.640528" lon="5.831432"><time>2026-05-07T20:06:49Z</time></trkpt>
<trkpt lat="50.639580" lon="5.831854"><time>2026-05-07T20:16:49Z</time></trkpt>
<trkpt lat="50.639267" lon="5.831346"><time>2026-05-07T20:26:49Z</time></trkpt>
<trkpt lat="50.638069" lon="5.831231"><time>2026-05-07T20:36:49Z</time></trkpt>
<trkpt lat="50.637053" lon="5.831417"><time>2026-05-07T20:46:49Z</time></trkpt>
</trkseg>
</trk>
<trk>
<name>lhvba199</name>
<cmt>r</cmt>
<desc>Battice Chemin n°199 </desc>
<link href="https://chemins.be/battice/chemin/199"/><trkseg>
<trkpt lat="50.642967" lon="5.831434"><time>2026-05-07T19:36:49Z</time></trkpt>
<trkpt lat="50.642552" lon="5.831459"><time>2026-05-07T19:46:49Z</time></trkpt>
<trkpt lat="50.642032" lon="5.831338"><time>2026-05-07T19:56:49Z</time></trkpt>
<trkpt lat="50.641733" lon="5.831020"><time>2026-05-07T20:06:49Z</time></trkpt>
<trkpt lat="50.641504" lon="5.830891"><time>2026-05-07T20:16:49Z</time></trkpt>
<trkpt lat="50.641343" lon="5.830430"><time>2026-05-07T20:26:49Z</time></trkpt>
</trkseg>
</trk>
<trk>
<name>lhvba20</name>
<cmt>v</cmt>
<desc>Battice Chemin n°20 Hauzeur</desc>
<link href="https://chemins.be/battice/chemin/20"/><trkseg>
<trkpt lat="50.630877" lon="5.852714"><time>2026-05-07T19:36:49Z</time></trkpt>
<trkpt lat="50.631870" lon="5.852572"><time>2026-05-07T19:46:49Z</time></trkpt>
<trkpt lat="50.632488" lon="5.852149"><time>2026-05-07T19:56:49Z</time></trkpt>
<trkpt lat="50.634007" lon="5.852213"><time>2026-05-07T20:06:49Z</time></trkpt>
</trkseg></trk>
<trk>
<name>lhvba20</name>
<cmt>r</cmt>
<desc>Battice Chemin n°20 Hauzeur</desc>
<link href="https://chemins.be/battice/chemin/20"/><trkseg>
<trkpt lat="50.634007" lon="5.852213"><time>2026-05-07T20:06:49Z</time></trkpt>
<trkpt lat="50.634556" lon="5.850833"><time>2026-05-07T20:16:49Z</time></trkpt>
<trkpt lat="50.634860" lon="5.849181"><time>2026-05-07T20:26:49Z</time></trkpt>
<trkpt lat="50.634624" lon="5.848179"><time>2026-05-07T20:36:49Z</time></trkpt>
<trkpt lat="50.634955" lon="5.847521"><time>2026-05-07T20:46:49Z</time></trkpt>
<trkpt lat="50.635368" lon="5.847049"><time>2026-05-07T20:56:49Z</time></trkpt>
<trkpt lat="50.635949" lon="5.845354"><time>2026-05-07T21:06:49Z</time></trkpt>
<trkpt lat="50.635749" lon="5.844045"><time>2026-05-07T21:16:49Z</time></trkpt>
<trkpt lat="50.636407" lon="5.841942"><time>2026-05-07T21:26:49Z</time></trkpt>
</trkseg></trk>
<trk>
<name>lhvba20</name>
<cmt>s</cmt>
<desc>Battice Chemin n°20 Hauzeur</desc>
<link href="https://chemins.be/battice/chemin/20"/><trkseg>
<trkpt lat="50.636407" lon="5.841942"><time>2026-05-07T21:26:49Z</time></trkpt>
<trkpt lat="50.637508" lon="5.839570"><time>2026-05-07T21:36:49Z</time></trkpt>
<trkpt lat="50.637664" lon="5.838365"><time>2026-05-07T21:46:49Z</time></trkpt>
</trkseg>
</trk>
<trk>
<name>lhvba200</name>
<cmt>q</cmt>
<desc>Battice Sentier n°200 </desc>
<link href="https://chemins.be/battice/sentier/200"/><trkseg>
<trkpt lat="50.641801" lon="5.831105"><time>2026-05-07T19:36:49Z</time></trkpt>
<trkpt lat="50.641949" lon="5.832747"><time>2026-05-07T19:46:49Z</time></trkpt>
<trkpt lat="50.642150" lon="5.833580"><time>2026-05-07T19:56:49Z</time></trkpt>
</trkseg>
</trk>
<trk>
<name>lhvba202</name>
<cmt>v</cmt>
<desc>Battice Sentier n°202 </desc>
<link href="https://chemins.be/battice/sentier/202"/><trkseg>
<trkpt lat="50.654627" lon="5.819840"><time>2026-05-07T19:36:49Z</time></trkpt>
<trkpt lat="50.652983" lon="5.819351"><time>2026-05-07T19:46:49Z</time></trkpt>
</trkseg></trk>
<trk>
<name>lhvba202</name>
<cmt>q</cmt>
<desc>Battice Sentier n°202 </desc>
<link href="https://chemins.be/battice/sentier/202"/><trkseg>
<trkpt lat="50.652983" lon="5.819351"><time>2026-05-07T19:46:49Z</time></trkpt>
<trkpt lat="50.652240" lon="5.819171"><time>2026-05-07T19:56:49Z</time></trkpt>
<trkpt lat="50.651700" lon="5.819379"><time>2026-05-07T20:06:49Z</time></trkpt>
<trkpt lat="50.650961" lon="5.819665"><time>2026-05-07T20:16:49Z</time></trkpt>
<trkpt lat="50.650061" lon="5.820270"><time>2026-05-07T20:26:49Z</time></trkpt>
</trkseg>
</trk>
<trk>
<name>lhvba203</name>
<cmt>r</cmt>
<desc>Battice Sentier n°203 Rue de Forges-les-Eaux / Val de Bouxhmont</desc>
<link href="https://chemins.be/battice/sentier/203"/><trkseg>
<trkpt lat="50.650096" lon="5.820270"><time>2026-05-07T19:36:49Z</time></trkpt>
<trkpt lat="50.650915" lon="5.820866"><time>2026-05-07T19:46:49Z</time></trkpt>
<trkpt lat="50.651310" lon="5.821355"><time>2026-05-07T19:56:49Z</time></trkpt>
</trkseg>
</trk>
<trk>
<name>lhvba204</name>
<cmt>q</cmt>
<desc>Battice Sentier n°204 </desc>
<link href="https://chemins.be/battice/sentier/204"/><trkseg>
<trkpt lat="50.655036" lon="5.821327"><time>2026-05-07T19:36:49Z</time></trkpt>
<trkpt lat="50.654883" lon="5.821318"><time>2026-05-07T19:46:49Z</time></trkpt>
<trkpt lat="50.654813" lon="5.820855"><time>2026-05-07T19:56:49Z</time></trkpt>
<trkpt lat="50.654606" lon="5.820263"><time>2026-05-07T20:06:49Z</time></trkpt>
<trkpt lat="50.654600" lon="5.819872"><time>2026-05-07T20:16:49Z</time></trkpt>
</trkseg>
</trk>
<trk>
<name>lhvba205</name>
<cmt>r</cmt>
<desc>Battice Sentier n°205 Bouxhmont</desc>
<link href="https://chemins.be/battice/sentier/205"/><trkseg>
<trkpt lat="50.655237" lon="5.822962"><time>2026-05-07T19:36:49Z</time></trkpt>
<trkpt lat="50.655602" lon="5.823147"><time>2026-05-07T19:46:49Z</time></trkpt>
<trkpt lat="50.655678" lon="5.823524"><time>2026-05-07T19:56:49Z</time></trkpt>
<trkpt lat="50.655977" lon="5.824001"><time>2026-05-07T20:06:49Z</time></trkpt>
<trkpt lat="50.656935" lon="5.823799"><time>2026-05-07T20:16:49Z</time></trkpt>
<trkpt lat="50.657348" lon="5.824550"><time>2026-05-07T20:26:49Z</time></trkpt>
</trkseg></trk>
<trk>
<name>lhvba205</name>
<cmt>v</cmt>
<desc>Battice Sentier n°205 Bouxhmont</desc>
<link href="https://chemins.be/battice/sentier/205"/><trkseg>
<trkpt lat="50.657348" lon="5.824550"><time>2026-05-07T20:26:49Z</time></trkpt>
<trkpt lat="50.657906" lon="5.824829"><time>2026-05-07T20:36:49Z</time></trkpt>
<trkpt lat="50.658211" lon="5.825101"><time>2026-05-07T20:46:49Z</time></trkpt>
<trkpt lat="50.659658" lon="5.826904"><time>2026-05-07T20:56:49Z</time></trkpt>
<trkpt lat="50.659832" lon="5.828117"><time>2026-05-07T21:06:49Z</time></trkpt>
<trkpt lat="50.660817" lon="5.830225"><time>2026-05-07T21:16:49Z</time></trkpt>
</trkseg>
</trk>
<trk>
<name>lhvba206</name>
<cmt>q</cmt>
<desc>Battice Sentier n°206 Bouxhmont</desc>
<link href="https://chemins.be/battice/sentier/206"/><trkseg>
<trkpt lat="50.655708" lon="5.823445"><time>2026-05-07T19:36:49Z</time></trkpt>
<trkpt lat="50.656986" lon="5.823799"><time>2026-05-07T19:46:49Z</time></trkpt>
<trkpt lat="50.657405" lon="5.824458"><time>2026-05-07T19:56:49Z</time></trkpt>
<trkpt lat="50.657999" lon="5.824784"><time>2026-05-07T20:06:49Z</time></trkpt>
<trkpt lat="50.659723" lon="5.826938"><time>2026-05-07T20:16:49Z</time></trkpt>
<trkpt lat="50.660202" lon="5.827342"><time>2026-05-07T20:26:49Z</time></trkpt>
<trkpt lat="50.662972" lon="5.827796"><time>2026-05-07T20:36:49Z</time></trkpt>
</trkseg>
</trk>
<trk>
<name>lhvba207</name>
<cmt>q</cmt>
<desc>Battice Sentier n°207 </desc>
<link href="https://chemins.be/battice/sentier/207"/><trkseg>
<trkpt lat="50.657623" lon="5.819582"><time>2026-05-07T19:36:49Z</time></trkpt>
<trkpt lat="50.659647" lon="5.825900"><time>2026-05-07T19:46:49Z</time></trkpt>
<trkpt lat="50.659669" lon="5.826964"><time>2026-05-07T19:56:49Z</time></trkpt>
</trkseg>
</trk>
<trk>
<name>lhvba208</name>
<cmt>q</cmt>
<desc>Battice Sentier n°208 </desc>
<link href="https://chemins.be/battice/sentier/208"/><trkseg>
<trkpt lat="50.663608" lon="5.828617"><time>2026-05-07T19:36:49Z</time></trkpt>
<trkpt lat="50.663296" lon="5.826783"><time>2026-05-07T19:46:49Z</time></trkpt>
</trkseg>
</trk>
<trk>
<name>lhvba209</name>
<cmt>q</cmt>
<desc>Battice Sentier n°209 </desc>
<link href="https://chemins.be/battice/sentier/209"/><trkseg>
<trkpt lat="50.665491" lon="5.827206"><time>2026-05-07T19:36:49Z</time></trkpt>
<trkpt lat="50.666503" lon="5.823266"><time>2026-05-07T19:46:49Z</time></trkpt>
</trkseg>
</trk>
<trk>
<name>lhvba21</name>
<cmt>q</cmt>
<desc>Battice Chemin n°21 </desc>
<link href="https://chemins.be/battice/chemin/21"/><trkseg>
<trkpt lat="50.632370" lon="5.845095"><time>2026-05-07T19:36:49Z</time></trkpt>
<trkpt lat="50.633087" lon="5.844895"><time>2026-05-07T19:46:49Z</time></trkpt>
<trkpt lat="50.633468" lon="5.845810"><time>2026-05-07T19:56:49Z</time></trkpt>
<trkpt lat="50.634747" lon="5.846840"><time>2026-05-07T20:06:49Z</time></trkpt>
<trkpt lat="50.635319" lon="5.846955"><time>2026-05-07T20:16:49Z</time></trkpt>
<trkpt lat="50.636662" lon="5.848366"><time>2026-05-07T20:26:49Z</time></trkpt>
<trkpt lat="50.637822" lon="5.849947"><time>2026-05-07T20:36:49Z</time></trkpt>
</trkseg>
</trk>
<trk>
<name>lhvba210</name>
<cmt>q</cmt>
<desc>Battice Sentier n°210 </desc>
<link href="https://chemins.be/battice/sentier/210"/><trkseg>
<trkpt lat="50.652953" lon="5.832016"><time>2026-05-07T19:36:49Z</time></trkpt>
<trkpt lat="50.653057" lon="5.830325"><time>2026-05-07T19:46:49Z</time></trkpt>
<trkpt lat="50.653149" lon="5.829865"><time>2026-05-07T19:56:49Z</time></trkpt>
<trkpt lat="50.653078" lon="5.829342"><time>2026-05-07T20:06:49Z</time></trkpt>
<trkpt lat="50.653174" lon="5.828664"><time>2026-05-07T20:16:49Z</time></trkpt>
<trkpt lat="50.653467" lon="5.828514"><time>2026-05-07T20:26:49Z</time></trkpt>
<trkpt lat="50.653930" lon="5.827020"><time>2026-05-07T20:36:49Z</time></trkpt>
<trkpt lat="50.654137" lon="5.826737"><time>2026-05-07T20:46:49Z</time></trkpt>
</trkseg>
</trk>
<trk>
<name>lhvba211</name>
<cmt>q</cmt>
<desc>Battice Chemin n°211 </desc>
<link href="https://chemins.be/battice/chemin/211"/><trkseg>
<trkpt lat="50.654776" lon="5.827960"><time>2026-05-07T19:36:49Z</time></trkpt>
<trkpt lat="50.653465" lon="5.828544"><time>2026-05-07T19:46:49Z</time></trkpt>
</trkseg>
</trk>
<trk>
<name>lhvba212</name>
<cmt>q</cmt>
<desc>Battice Sentier n°212 </desc>
<link href="https://chemins.be/battice/sentier/212"/><trkseg>
<trkpt lat="50.638426" lon="5.817014"><time>2026-05-07T19:36:49Z</time></trkpt>
<trkpt lat="50.638671" lon="5.814568"><time>2026-05-07T19:46:49Z</time></trkpt>
<trkpt lat="50.638181" lon="5.813752"><time>2026-05-07T19:56:49Z</time></trkpt>
<trkpt lat="50.637922" lon="5.810443"><time>2026-05-07T20:06:49Z</time></trkpt>
</trkseg></trk>
<trk>
<name>lhvba212</name>
<cmt>v</cmt>
<desc>Battice Sentier n°212 </desc>
<link href="https://chemins.be/battice/sentier/212"/><trkseg>
<trkpt lat="50.637922" lon="5.810443"><time>2026-05-07T20:06:49Z</time></trkpt>
<trkpt lat="50.637854" lon="5.809568"><time>2026-05-07T20:16:49Z</time></trkpt>
<trkpt lat="50.637936" lon="5.807465"><time>2026-05-07T20:26:49Z</time></trkpt>
<trkpt lat="50.638453" lon="5.805320"><time>2026-05-07T20:36:49Z</time></trkpt>
</trkseg>
</trk>
<trk>
<name>lhvba213</name>
<cmt>q</cmt>
<desc>Battice Chemin n°213 </desc>
<link href="https://chemins.be/battice/chemin/213"/><trkseg>
<trkpt lat="50.638573" lon="5.817473"><time>2026-05-07T19:36:49Z</time></trkpt>
<trkpt lat="50.639185" lon="5.817029"><time>2026-05-07T19:46:49Z</time></trkpt>
<trkpt lat="50.640462" lon="5.815878"><time>2026-05-07T19:56:49Z</time></trkpt>
</trkseg>
</trk>
<trk>
<name>lhvba217</name>
<cmt>q</cmt>
<desc>Battice Sentier n°217 </desc>
<link href="https://chemins.be/battice/sentier/217"/><trkseg>
<trkpt lat="50.635875" lon="5.845798"><time>2026-05-07T19:36:49Z</time></trkpt>
<trkpt lat="50.636364" lon="5.847707"><time>2026-05-07T19:46:49Z</time></trkpt>
<trkpt lat="50.636655" lon="5.848258"><time>2026-05-07T19:56:49Z</time></trkpt>
<trkpt lat="50.636637" lon="5.850890"><time>2026-05-07T20:06:49Z</time></trkpt>
</trkseg>
</trk>
<trk>
<name>lhvba218</name>
<cmt>q</cmt>
<desc>Battice Sentier n°218 </desc>
<link href="https://chemins.be/battice/sentier/218"/><trkseg>
<trkpt lat="50.634831" lon="5.848952"><time>2026-05-07T19:36:49Z</time></trkpt>
<trkpt lat="50.635430" lon="5.850762"><time>2026-05-07T19:46:49Z</time></trkpt>
</trkseg>
</trk>
<trk>
<name>lhvba219</name>
<cmt>v</cmt>
<desc>Battice Sentier n°219 </desc>
<link href="https://chemins.be/battice/sentier/219"/><trkseg>
<trkpt lat="50.633938" lon="5.852150"><time>2026-05-07T19:36:49Z</time></trkpt>
<trkpt lat="50.634430" lon="5.852407"><time>2026-05-07T19:46:49Z</time></trkpt>
</trkseg></trk>
<trk>
<name>lhvba219</name>
<cmt>q</cmt>
<desc>Battice Sentier n°219 </desc>
<link href="https://chemins.be/battice/sentier/219"/><trkseg>
<trkpt lat="50.634430" lon="5.852407"><time>2026-05-07T19:46:49Z</time></trkpt>
<trkpt lat="50.635070" lon="5.852644"><time>2026-05-07T19:56:49Z</time></trkpt>
</trkseg>
</trk>
<trk>
<name>lhvba22</name>
<cmt>q</cmt>
<desc>Battice Chemin n°22 Hauzeur / Rue du Coteau</desc>
<link href="https://chemins.be/battice/chemin/22"/><trkseg>
<trkpt lat="50.631991" lon="5.854037"><time>2026-05-07T19:36:49Z</time></trkpt>
<trkpt lat="50.631449" lon="5.854627"><time>2026-05-07T19:46:49Z</time></trkpt>
</trkseg></trk>
<trk>
<name>lhvba22</name>
<cmt>r</cmt>
<desc>Battice Chemin n°22 Hauzeur / Rue du Coteau</desc>
<link href="https://chemins.be/battice/chemin/22"/><trkseg>
<trkpt lat="50.631449" lon="5.854627"><time>2026-05-07T19:46:49Z</time></trkpt>
<trkpt lat="50.631248" lon="5.854842"><time>2026-05-07T19:56:49Z</time></trkpt>
</trkseg></trk>
<trk>
<name>lhvba22</name>
<cmt>v</cmt>
<desc>Battice Chemin n°22 Hauzeur / Rue du Coteau</desc>
<link href="https://chemins.be/battice/chemin/22"/><trkseg>
<trkpt lat="50.631248" lon="5.854842"><time>2026-05-07T19:56:49Z</time></trkpt>
<trkpt lat="50.630740" lon="5.855169"><time>2026-05-07T20:06:49Z</time></trkpt>
<trkpt lat="50.630340" lon="5.854838"><time>2026-05-07T20:16:49Z</time></trkpt>
<trkpt lat="50.629929" lon="5.855029"><time>2026-05-07T20:26:49Z</time></trkpt>
<trkpt lat="50.629602" lon="5.855283"><time>2026-05-07T20:36:49Z</time></trkpt>
</trkseg></trk>
<trk>
<name>lhvba22</name>
<cmt>r</cmt>
<desc>Battice Chemin n°22 Hauzeur / Rue du Coteau</desc>
<link href="https://chemins.be/battice/chemin/22"/><trkseg>
<trkpt lat="50.629602" lon="5.855283"><time>2026-05-07T20:36:49Z</time></trkpt>
<trkpt lat="50.629794" lon="5.855519"><time>2026-05-07T20:46:49Z</time></trkpt>
<trkpt lat="50.628442" lon="5.856381"><time>2026-05-07T20:56:49Z</time></trkpt>
<trkpt lat="50.627925" lon="5.856370"><time>2026-05-07T21:06:49Z</time></trkpt>
<trkpt lat="50.627481" lon="5.856073"><time>2026-05-07T21:16:49Z</time></trkpt>
</trkseg></trk>
<trk>
<name>lhvba22</name>
<cmt>v</cmt>
<desc>Battice Chemin n°22 Hauzeur / Rue du Coteau</desc>
<link href="https://chemins.be/battice/chemin/22"/><trkseg>
<trkpt lat="50.627481" lon="5.856073"><time>2026-05-07T21:16:49Z</time></trkpt>
<trkpt lat="50.626597" lon="5.855572"><time>2026-05-07T21:26:49Z</time></trkpt>
<trkpt lat="50.625800" lon="5.855377"><time>2026-05-07T21:36:49Z</time></trkpt>
</trkseg>
</trk>
<trk>
<name>lhvba220</name>
<cmt>q</cmt>
<desc>Battice Sentier n°220 </desc>
<link href="https://chemins.be/battice/sentier/220"/><trkseg>
<trkpt lat="50.639118" lon="5.842701"><time>2026-05-07T19:36:49Z</time></trkpt>
<trkpt lat="50.638392" lon="5.844021"><time>2026-05-07T19:46:49Z</time></trkpt>
</trkseg></trk>
<trk>
<name>lhvba220</name>
<cmt>s</cmt>
<desc>Battice Sentier n°220 </desc>
<link href="https://chemins.be/battice/sentier/220"/><trkseg>
<trkpt lat="50.638392" lon="5.844021"><time>2026-05-07T19:46:49Z</time></trkpt>
<trkpt lat="50.638010" lon="5.848859"><time>2026-05-07T19:56:49Z</time></trkpt>
</trkseg></trk>
<trk>
<name>lhvba220</name>
<cmt>q</cmt>
<desc>Battice Sentier n°220 </desc>
<link href="https://chemins.be/battice/sentier/220"/><trkseg>
<trkpt lat="50.638010" lon="5.848859"><time>2026-05-07T19:56:49Z</time></trkpt>
<trkpt lat="50.637652" lon="5.849817"><time>2026-05-07T20:06:49Z</time></trkpt>
</trkseg>
</trk>
<trk>
<name>lhvba221</name>
<cmt>q</cmt>
<desc>Battice Sentier n°221 </desc>
<link href="https://chemins.be/battice/sentier/221"/><trkseg>
<trkpt lat="50.633129" lon="5.788829"><time>2026-05-07T19:36:49Z</time></trkpt>
<trkpt lat="50.633167" lon="5.788786"><time>2026-05-07T19:46:49Z</time></trkpt>
<trkpt lat="50.633731" lon="5.788969"><time>2026-05-07T19:56:49Z</time></trkpt>
<trkpt lat="50.633755" lon="5.789076"><time>2026-05-07T20:06:49Z</time></trkpt>
</trkseg>
</trk>
<trk>
<name>lhvba222</name>
<cmt>r</cmt>
<desc>Battice Sentier n°222 Xhéneumont</desc>
<link href="https://chemins.be/battice/sentier/222"/><trkseg>
<trkpt lat="50.637387" lon="5.814902"><time>2026-05-07T19:36:49Z</time></trkpt>
<trkpt lat="50.636813" lon="5.818023"><time>2026-05-07T19:46:49Z</time></trkpt>
<trkpt lat="50.636742" lon="5.818152"><time>2026-05-07T19:56:49Z</time></trkpt>
</trkseg></trk>
<trk>
<name>lhvba222</name>
<cmt>d</cmt>
<desc>Battice Sentier n°222 Xhéneumont</desc>
<link href="https://chemins.be/battice/sentier/222"/><trkseg>
<trkpt lat="50.636742" lon="5.818152"><time>2026-05-07T19:56:49Z</time></trkpt>
<trkpt lat="50.636085" lon="5.818603"><time>2026-05-07T20:06:49Z</time></trkpt>
<trkpt lat="50.635881" lon="5.819001"><time>2026-05-07T20:16:49Z</time></trkpt>
<trkpt lat="50.635967" lon="5.820553"><time>2026-05-07T20:26:49Z</time></trkpt>
</trkseg>
</trk>
<trk>
<name>lhvba225</name>
<cmt>q</cmt>
<desc>Battice Chemin n°225 </desc>
<link href="https://chemins.be/battice/chemin/225"/><trkseg>
<trkpt lat="50.634368" lon="5.827127"><time>2026-05-07T19:36:49Z</time></trkpt>
<trkpt lat="50.634018" lon="5.826254"><time>2026-05-07T19:46:49Z</time></trkpt>
<trkpt lat="50.633758" lon="5.826416"><time>2026-05-07T19:56:49Z</time></trkpt>
</trkseg></trk>
<trk>
<name>lhvba225</name>
<cmt>v</cmt>
<desc>Battice Chemin n°225 </desc>
<link href="https://chemins.be/battice/chemin/225"/><trkseg>
<trkpt lat="50.633758" lon="5.826416"><time>2026-05-07T19:56:49Z</time></trkpt>
<trkpt lat="50.633358" lon="5.826665"><time>2026-05-07T20:06:49Z</time></trkpt>
<trkpt lat="50.633193" lon="5.827198"><time>2026-05-07T20:16:49Z</time></trkpt>
</trkseg>
</trk>
<trk>
<name>lhvba226</name>
<cmt>s</cmt>
<desc>Battice Chemin n°226 </desc>
<link href="https://chemins.be/battice/chemin/226"/><trkseg>
<trkpt lat="50.630311" lon="5.837184"><time>2026-05-07T19:36:49Z</time></trkpt>
<trkpt lat="50.630055" lon="5.837275"><time>2026-05-07T19:46:49Z</time></trkpt>
</trkseg>
</trk>
<trk>
<name>lhvba227</name>
<cmt>r</cmt>
<desc>Battice Chemin n°227 </desc>
<link href="https://chemins.be/battice/chemin/227"/><trkseg>
<trkpt lat="50.617214" lon="5.792955"><time>2026-05-07T19:36:49Z</time></trkpt>
<trkpt lat="50.616542" lon="5.793975"><time>2026-05-07T19:46:49Z</time></trkpt>
<trkpt lat="50.616261" lon="5.794068"><time>2026-05-07T19:56:49Z</time></trkpt>
<trkpt lat="50.616115" lon="5.794708"><time>2026-05-07T20:06:49Z</time></trkpt>
</trkseg>
</trk>
<trk>
<name>lhvba23</name>
<cmt>v</cmt>
<desc>Battice Chemin n°23 Hauzeur</desc>
<link href="https://chemins.be/battice/chemin/23"/><trkseg>
<trkpt lat="50.632529" lon="5.852182"><time>2026-05-07T19:36:49Z</time></trkpt>
<trkpt lat="50.632754" lon="5.853627"><time>2026-05-07T19:46:49Z</time></trkpt>
<trkpt lat="50.633253" lon="5.854718"><time>2026-05-07T19:56:49Z</time></trkpt>
<trkpt lat="50.634270" lon="5.855490"><time>2026-05-07T20:06:49Z</time></trkpt>
</trkseg>
</trk>
<trk>
<name>lhvba230</name>
<cmt>q</cmt>
<desc>Battice Sentier n°230 </desc>
<link href="https://chemins.be/battice/sentier/230"/><trkseg>
<trkpt lat="50.618798" lon="5.781204"><time>2026-05-07T19:36:49Z</time></trkpt>
<trkpt lat="50.619118" lon="5.781112"><time>2026-05-07T19:46:49Z</time></trkpt>
</trkseg>
</trk>
<trk>
<name>lhvba232</name>
<cmt>q</cmt>
<desc>Battice Sentier n°232 </desc>
<link href="https://chemins.be/battice/sentier/232"/><trkseg>
<trkpt lat="50.632569" lon="5.765131"><time>2026-05-07T19:36:49Z</time></trkpt>
<trkpt lat="50.632819" lon="5.767799"><time>2026-05-07T19:46:49Z</time></trkpt>
<trkpt lat="50.632991" lon="5.769787"><time>2026-05-07T19:56:49Z</time></trkpt>
<trkpt lat="50.633486" lon="5.771754"><time>2026-05-07T20:06:49Z</time></trkpt>
</trkseg>
</trk>
<trk>
<name>lhvba233</name>
<cmt>s</cmt>
<desc>Battice Chemin n°233 </desc>
<link href="https://chemins.be/battice/chemin/233"/><trkseg>
<trkpt lat="50.632933" lon="5.773873"><time>2026-05-07T19:36:49Z</time></trkpt>
<trkpt lat="50.632673" lon="5.774543"><time>2026-05-07T19:46:49Z</time></trkpt>
</trkseg>
</trk>
<trk>
<name>lhvba234</name>
<cmt>v</cmt>
<desc>Battice Sentier n°234 </desc>
<link href="https://chemins.be/battice/sentier/234"/><trkseg>
<trkpt lat="50.622150" lon="5.803942"><time>2026-05-07T19:36:49Z</time></trkpt>
<trkpt lat="50.621201" lon="5.804847"><time>2026-05-07T19:46:49Z</time></trkpt>
</trkseg></trk>
<trk>
<name>lhvba234</name>
<cmt>q</cmt>
<desc>Battice Sentier n°234 </desc>
<link href="https://chemins.be/battice/sentier/234"/><trkseg>
<trkpt lat="50.621201" lon="5.804847"><time>2026-05-07T19:46:49Z</time></trkpt>
<trkpt lat="50.620985" lon="5.804551"><time>2026-05-07T19:56:49Z</time></trkpt>
<trkpt lat="50.620381" lon="5.805315"><time>2026-05-07T20:06:49Z</time></trkpt>
</trkseg>
</trk>
<trk>
<name>lhvba236</name>
<cmt>r</cmt>
<desc>Battice Sentier n°236 Thier Martin</desc>
<link href="https://chemins.be/battice/sentier/236"/><trkseg>
<trkpt lat="50.630284" lon="5.814624"><time>2026-05-07T19:36:49Z</time></trkpt>
<trkpt lat="50.630425" lon="5.814971"><time>2026-05-07T19:46:49Z</time></trkpt>
</trkseg></trk>
<trk>
<name>lhvba236</name>
<cmt>v</cmt>
<desc>Battice Sentier n°236 Thier Martin</desc>
<link href="https://chemins.be/battice/sentier/236"/><trkseg>
<trkpt lat="50.630425" lon="5.814971"><time>2026-05-07T19:46:49Z</time></trkpt>
<trkpt lat="50.630846" lon="5.816172"><time>2026-05-07T19:56:49Z</time></trkpt>
</trkseg>
</trk>
<trk>
<name>lhvba237</name>
<cmt>q</cmt>
<desc>Battice Chemin n°237 </desc>
<link href="https://chemins.be/battice/chemin/237"/><trkseg>
<trkpt lat="50.627298" lon="5.819527"><time>2026-05-07T19:36:49Z</time></trkpt>
<trkpt lat="50.627607" lon="5.819352"><time>2026-05-07T19:46:49Z</time></trkpt>
<trkpt lat="50.627892" lon="5.818800"><time>2026-05-07T19:56:49Z</time></trkpt>
<trkpt lat="50.628314" lon="5.817982"><time>2026-05-07T20:06:49Z</time></trkpt>
<trkpt lat="50.628063" lon="5.817589"><time>2026-05-07T20:16:49Z</time></trkpt>
</trkseg>
</trk>
<trk>
<name>lhvba238</name>
<cmt>q</cmt>
<desc>Battice Chemin n°238 </desc>
<link href="https://chemins.be/battice/chemin/238"/><trkseg>
<trkpt lat="50.628296" lon="5.818061"><time>2026-05-07T19:36:49Z</time></trkpt>
<trkpt lat="50.628727" lon="5.818354"><time>2026-05-07T19:46:49Z</time></trkpt>
</trkseg>
</trk>
<trk>
<name>lhvba24</name>
<cmt>v</cmt>
<desc>Battice Chemin n°24 </desc>
<link href="https://chemins.be/battice/chemin/24"/><trkseg>
<trkpt lat="50.615860" lon="5.807855"><time>2026-05-07T19:36:49Z</time></trkpt>
<trkpt lat="50.615571" lon="5.808026"><time>2026-05-07T19:46:49Z</time></trkpt>
</trkseg>
</trk>
<trk>
<name>lhvba240</name>
<cmt>q</cmt>
<desc>Battice Sentier n°240 </desc>
<link href="https://chemins.be/battice/sentier/240"/><trkseg>
<trkpt lat="50.626936" lon="5.848823"><time>2026-05-07T19:36:49Z</time></trkpt>
<trkpt lat="50.626509" lon="5.850025"><time>2026-05-07T19:46:49Z</time></trkpt>
<trkpt lat="50.626194" lon="5.850538"><time>2026-05-07T19:56:49Z</time></trkpt>
</trkseg></trk>
<trk>
<name>lhvba240</name>
<cmt>s</cmt>
<desc>Battice Sentier n°240 </desc>
<link href="https://chemins.be/battice/sentier/240"/><trkseg>
<trkpt lat="50.626194" lon="5.850538"><time>2026-05-07T19:56:49Z</time></trkpt>
<trkpt lat="50.625793" lon="5.851189"><time>2026-05-07T20:06:49Z</time></trkpt>
</trkseg></trk>
<trk>
<name>lhvba240</name>
<cmt>q</cmt>
<desc>Battice Sentier n°240 </desc>
<link href="https://chemins.be/battice/sentier/240"/><trkseg>
<trkpt lat="50.625793" lon="5.851189"><time>2026-05-07T20:06:49Z</time></trkpt>
<trkpt lat="50.625189" lon="5.852171"><time>2026-05-07T20:16:49Z</time></trkpt>
</trkseg>
</trk>
<trk>
<name>lhvba244</name>
<cmt>v</cmt>
<desc>Battice Chemin n°244 Outre-Cour</desc>
<link href="https://chemins.be/battice/chemin/244"/><trkseg>
<trkpt lat="50.639088" lon="5.781713"><time>2026-05-07T19:36:49Z</time></trkpt>
<trkpt lat="50.639269" lon="5.782275"><time>2026-05-07T19:46:49Z</time></trkpt>
</trkseg>
</trk>
<trk>
<name>lhvba245</name>
<cmt>q</cmt>
<desc>Battice Sentier n°245 </desc>
<link href="https://chemins.be/battice/sentier/245"/><trkseg>
<trkpt lat="50.628078" lon="5.799805"><time>2026-05-07T19:36:49Z</time></trkpt>
<trkpt lat="50.627854" lon="5.800037"><time>2026-05-07T19:46:49Z</time></trkpt>
<trkpt lat="50.627395" lon="5.801743"><time>2026-05-07T19:56:49Z</time></trkpt>
</trkseg>
</trk>
<trk>
<name>lhvba246</name>
<cmt>d</cmt>
<desc>Battice Chemin n°246 </desc>
<link href="https://chemins.be/battice/chemin/246"/><trkseg>
<trkpt lat="50.626991" lon="5.849373"><time>2026-05-07T19:36:49Z</time></trkpt>
<trkpt lat="50.627297" lon="5.849241"><time>2026-05-07T19:46:49Z</time></trkpt>
</trkseg>
</trk>
<trk>
<name>lhvba29</name>
<cmt>d</cmt>
<desc>Battice Chemin n°29 </desc>
<link href="https://chemins.be/battice/chemin/29"/><trkseg>
<trkpt lat="50.629047" lon="5.854667"><time>2026-05-07T19:36:49Z</time></trkpt>
<trkpt lat="50.629860" lon="5.855032"><time>2026-05-07T19:46:49Z</time></trkpt>
</trkseg>
</trk>
<trk>
<name>lhvba33</name>
<cmt>v</cmt>
<desc>Battice Chemin n°33 Rue Houlteau</desc>
<link href="https://chemins.be/battice/chemin/33"/><trkseg>
<trkpt lat="50.626918" lon="5.848458"><time>2026-05-07T19:36:49Z</time></trkpt>
<trkpt lat="50.626963" lon="5.850404"><time>2026-05-07T19:46:49Z</time></trkpt>
</trkseg></trk>
<trk>
<name>lhvba33</name>
<cmt>q</cmt>
<desc>Battice Chemin n°33 Rue Houlteau</desc>
<link href="https://chemins.be/battice/chemin/33"/><trkseg>
<trkpt lat="50.626963" lon="5.850404"><time>2026-05-07T19:46:49Z</time></trkpt>
<trkpt lat="50.627969" lon="5.851872"><time>2026-05-07T19:56:49Z</time></trkpt>
</trkseg></trk>
<trk>
<name>lhvba33</name>
<cmt>r</cmt>
<desc>Battice Chemin n°33 Rue Houlteau</desc>
<link href="https://chemins.be/battice/chemin/33"/><trkseg>
<trkpt lat="50.627969" lon="5.851872"><time>2026-05-07T19:56:49Z</time></trkpt>
<trkpt lat="50.628240" lon="5.852872"><time>2026-05-07T20:06:49Z</time></trkpt>
<trkpt lat="50.628445" lon="5.853368"><time>2026-05-07T20:16:49Z</time></trkpt>
<trkpt lat="50.628657" lon="5.853636"><time>2026-05-07T20:26:49Z</time></trkpt>
</trkseg></trk>
<trk>
<name>lhvba33</name>
<cmt>d</cmt>
<desc>Battice Chemin n°33 Rue Houlteau</desc>
<link href="https://chemins.be/battice/chemin/33"/><trkseg>
<trkpt lat="50.628657" lon="5.853636"><time>2026-05-07T20:26:49Z</time></trkpt>
<trkpt lat="50.628853" lon="5.853855"><time>2026-05-07T20:36:49Z</time></trkpt>
</trkseg>
</trk>
<trk>
<name>lhvba35</name>
<cmt>v</cmt>
<desc>Battice Chemin n°35 </desc>
<link href="https://chemins.be/battice/chemin/35"/><trkseg>
<trkpt lat="50.627507" lon="5.843430"><time>2026-05-07T19:36:49Z</time></trkpt>
<trkpt lat="50.628108" lon="5.842812"><time>2026-05-07T19:46:49Z</time></trkpt>
<trkpt lat="50.628491" lon="5.842400"><time>2026-05-07T19:56:49Z</time></trkpt>
<trkpt lat="50.628960" lon="5.841609"><time>2026-05-07T20:06:49Z</time></trkpt>
<trkpt lat="50.629226" lon="5.841122"><time>2026-05-07T20:16:49Z</time></trkpt>
<trkpt lat="50.629501" lon="5.840749"><time>2026-05-07T20:26:49Z</time></trkpt>
<trkpt lat="50.629967" lon="5.840863"><time>2026-05-07T20:36:49Z</time></trkpt>
</trkseg>
</trk>
<trk>
<name>lhvba36</name>
<cmt>r</cmt>
<desc>Battice Chemin n°36 Rue Gelée</desc>
<link href="https://chemins.be/battice/chemin/36"/><trkseg>
<trkpt lat="50.628729" lon="5.845805"><time>2026-05-07T19:36:49Z</time></trkpt>
<trkpt lat="50.627132" lon="5.847021"><time>2026-05-07T19:46:49Z</time></trkpt>
</trkseg>
</trk>
<trk>
<name>lhvba38</name>
<cmt>q</cmt>
<desc>Battice Chemin n°38 </desc>
<link href="https://chemins.be/battice/chemin/38"/><trkseg>
<trkpt lat="50.630324" lon="5.837083"><time>2026-05-07T19:36:49Z</time></trkpt>
<trkpt lat="50.630649" lon="5.836014"><time>2026-05-07T19:46:49Z</time></trkpt>
<trkpt lat="50.630633" lon="5.835123"><time>2026-05-07T19:56:49Z</time></trkpt>
<trkpt lat="50.630388" lon="5.834784"><time>2026-05-07T20:06:49Z</time></trkpt>
<trkpt lat="50.630231" lon="5.834301"><time>2026-05-07T20:16:49Z</time></trkpt>
</trkseg>
</trk>
<trk>
<name>lhvba39</name>
<cmt>q</cmt>
<desc>Battice Chemin n°39 </desc>
<link href="https://chemins.be/battice/chemin/39"/><trkseg>
<trkpt lat="50.627455" lon="5.834506"><time>2026-05-07T19:36:49Z</time></trkpt>
<trkpt lat="50.627666" lon="5.834352"><time>2026-05-07T19:46:49Z</time></trkpt>
<trkpt lat="50.628519" lon="5.832535"><time>2026-05-07T19:56:49Z</time></trkpt>
</trkseg>
</trk>
<trk>
<name>lhvba4</name>
<cmt>v</cmt>
<desc>Battice Chemin n°4 </desc>
<link href="https://chemins.be/battice/chemin/4"/><trkseg>
<trkpt lat="50.664064" lon="5.823375"><time>2026-05-07T19:36:49Z</time></trkpt>
<trkpt lat="50.663740" lon="5.824803"><time>2026-05-07T19:46:49Z</time></trkpt>
</trkseg></trk>
<trk>
<name>lhvba4</name>
<cmt>q</cmt>
<desc>Battice Chemin n°4 </desc>
<link href="https://chemins.be/battice/chemin/4"/><trkseg>
<trkpt lat="50.663740" lon="5.824803"><time>2026-05-07T19:46:49Z</time></trkpt>
<trkpt lat="50.663296" lon="5.826815"><time>2026-05-07T19:56:49Z</time></trkpt>
<trkpt lat="50.662738" lon="5.828810"><time>2026-05-07T20:06:49Z</time></trkpt>
</trkseg>
</trk>
<trk>
<name>lhvba40</name>
<cmt>v</cmt>
<desc>Battice Chemin n°40 </desc>
<link href="https://chemins.be/battice/chemin/40"/><trkseg>
<trkpt lat="50.620984" lon="5.793618"><time>2026-05-07T19:36:49Z</time></trkpt>
<trkpt lat="50.621732" lon="5.791955"><time>2026-05-07T19:46:49Z</time></trkpt>
</trkseg></trk>
<trk>
<name>lhvba40</name>
<cmt>r</cmt>
<desc>Battice Chemin n°40 </desc>
<link href="https://chemins.be/battice/chemin/40"/><trkseg>
<trkpt lat="50.621732" lon="5.791955"><time>2026-05-07T19:46:49Z</time></trkpt>
<trkpt lat="50.621319" lon="5.791297"><time>2026-05-07T19:56:49Z</time></trkpt>
<trkpt lat="50.620814" lon="5.790796"><time>2026-05-07T20:06:49Z</time></trkpt>
<trkpt lat="50.620569" lon="5.790739"><time>2026-05-07T20:16:49Z</time></trkpt>
</trkseg></trk>
<trk>
<name>lhvba40</name>
<cmt>q</cmt>
<desc>Battice Chemin n°40 </desc>
<link href="https://chemins.be/battice/chemin/40"/><trkseg>
<trkpt lat="50.620569" lon="5.790739"><time>2026-05-07T20:16:49Z</time></trkpt>
<trkpt lat="50.620115" lon="5.789151"><time>2026-05-07T20:26:49Z</time></trkpt>
<trkpt lat="50.620142" lon="5.787678"><time>2026-05-07T20:36:49Z</time></trkpt>
</trkseg></trk>
<trk>
<name>lhvba40</name>
<cmt>r</cmt>
<desc>Battice Chemin n°40 </desc>
<link href="https://chemins.be/battice/chemin/40"/><trkseg>
<trkpt lat="50.620142" lon="5.787678"><time>2026-05-07T20:36:49Z</time></trkpt>
<trkpt lat="50.620686" lon="5.787363"><time>2026-05-07T20:46:49Z</time></trkpt>
</trkseg>
</trk>
<trk>
<name>lhvba41</name>
<cmt>v</cmt>
<desc>Battice Chemin n°41 Vinâve</desc>
<link href="https://chemins.be/battice/chemin/41"/><trkseg>
<trkpt lat="50.622212" lon="5.807240"><time>2026-05-07T19:36:49Z</time></trkpt>
<trkpt lat="50.619511" lon="5.806588"><time>2026-05-07T19:46:49Z</time></trkpt>
<trkpt lat="50.618944" lon="5.806742"><time>2026-05-07T19:56:49Z</time></trkpt>
<trkpt lat="50.618448" lon="5.807036"><time>2026-05-07T20:06:49Z</time></trkpt>
<trkpt lat="50.617984" lon="5.807126"><time>2026-05-07T20:16:49Z</time></trkpt>
<trkpt lat="50.616830" lon="5.807667"><time>2026-05-07T20:26:49Z</time></trkpt>
<trkpt lat="50.616280" lon="5.807633"><time>2026-05-07T20:36:49Z</time></trkpt>
<trkpt lat="50.615877" lon="5.807864"><time>2026-05-07T20:46:49Z</time></trkpt>
</trkseg>
</trk>
<trk>
<name>lhvba42</name>
<cmt>q</cmt>
<desc>Battice Chemin n°42 </desc>
<link href="https://chemins.be/battice/chemin/42"/><trkseg>
<trkpt lat="50.630363" lon="5.801046"><time>2026-05-07T19:36:49Z</time></trkpt>
<trkpt lat="50.630440" lon="5.801715"><time>2026-05-07T19:46:49Z</time></trkpt>
<trkpt lat="50.630340" lon="5.802598"><time>2026-05-07T19:56:49Z</time></trkpt>
<trkpt lat="50.630674" lon="5.803732"><time>2026-05-07T20:06:49Z</time></trkpt>
</trkseg>
</trk>
<trk>
<name>lhvba43</name>
<cmt>d</cmt>
<desc>Battice Chemin n°43 </desc>
<link href="https://chemins.be/battice/chemin/43"/><trkseg>
<trkpt lat="50.631539" lon="5.806119"><time>2026-05-07T19:36:49Z</time></trkpt>
<trkpt lat="50.632155" lon="5.806708"><time>2026-05-07T19:46:49Z</time></trkpt>
<trkpt lat="50.632655" lon="5.806999"><time>2026-05-07T19:56:49Z</time></trkpt>
<trkpt lat="50.633277" lon="5.806956"><time>2026-05-07T20:06:49Z</time></trkpt>
<trkpt lat="50.633762" lon="5.807399"><time>2026-05-07T20:16:49Z</time></trkpt>
</trkseg></trk>
<trk>
<name>lhvba43</name>
<cmt>s</cmt>
<desc>Battice Chemin n°43 </desc>
<link href="https://chemins.be/battice/chemin/43"/><trkseg>
<trkpt lat="50.633762" lon="5.807399"><time>2026-05-07T20:16:49Z</time></trkpt>
<trkpt lat="50.635291" lon="5.809445"><time>2026-05-07T20:26:49Z</time></trkpt>
</trkseg></trk>
<trk>
<name>lhvba43</name>
<cmt>r</cmt>
<desc>Battice Chemin n°43 </desc>
<link href="https://chemins.be/battice/chemin/43"/><trkseg>
<trkpt lat="50.635291" lon="5.809445"><time>2026-05-07T20:26:49Z</time></trkpt>
<trkpt lat="50.635777" lon="5.809895"><time>2026-05-07T20:36:49Z</time></trkpt>
<trkpt lat="50.636466" lon="5.811154"><time>2026-05-07T20:46:49Z</time></trkpt>
<trkpt lat="50.637114" lon="5.813710"><time>2026-05-07T20:56:49Z</time></trkpt>
</trkseg>
</trk>
<trk>
<name>lhvba44</name>
<cmt>v</cmt>
<desc>Battice Chemin n°44 Hac</desc>
<link href="https://chemins.be/battice/chemin/44"/><trkseg>
<trkpt lat="50.637337" lon="5.814632"><time>2026-05-07T19:36:49Z</time></trkpt>
<trkpt lat="50.638086" lon="5.814117"><time>2026-05-07T19:46:49Z</time></trkpt>
<trkpt lat="50.639582" lon="5.812551"><time>2026-05-07T19:56:49Z</time></trkpt>
<trkpt lat="50.640179" lon="5.811038"><time>2026-05-07T20:06:49Z</time></trkpt>
<trkpt lat="50.640916" lon="5.809740"><time>2026-05-07T20:16:49Z</time></trkpt>
<trkpt lat="50.641072" lon="5.808855"><time>2026-05-07T20:26:49Z</time></trkpt>
</trkseg></trk>
<trk>
<name>lhvba44</name>
<cmt>r</cmt>
<desc>Battice Chemin n°44 Hac</desc>
<link href="https://chemins.be/battice/chemin/44"/><trkseg>
<trkpt lat="50.641072" lon="5.808855"><time>2026-05-07T20:26:49Z</time></trkpt>
<trkpt lat="50.641896" lon="5.806993"><time>2026-05-07T20:36:49Z</time></trkpt>
<trkpt lat="50.641882" lon="5.805641"><time>2026-05-07T20:46:49Z</time></trkpt>
</trkseg>
</trk>
<trk>
<name>lhvba45</name>
<cmt>r</cmt>
<desc>Battice Chemin n°45 Sur l'Agaux</desc>
<link href="https://chemins.be/battice/chemin/45"/><trkseg>
<trkpt lat="50.631587" lon="5.806032"><time>2026-05-07T19:36:49Z</time></trkpt>
<trkpt lat="50.631698" lon="5.805535"><time>2026-05-07T19:46:49Z</time></trkpt>
<trkpt lat="50.631795" lon="5.805449"><time>2026-05-07T19:56:49Z</time></trkpt>
<trkpt lat="50.632258" lon="5.805210"><time>2026-05-07T20:06:49Z</time></trkpt>
</trkseg></trk>
<trk>
<name>lhvba45</name>
<cmt>q</cmt>
<desc>Battice Chemin n°45 Sur l'Agaux</desc>
<link href="https://chemins.be/battice/chemin/45"/><trkseg>
<trkpt lat="50.632258" lon="5.805210"><time>2026-05-07T20:06:49Z</time></trkpt>
<trkpt lat="50.632780" lon="5.804451"><time>2026-05-07T20:16:49Z</time></trkpt>
<trkpt lat="50.632757" lon="5.802134"><time>2026-05-07T20:26:49Z</time></trkpt>
</trkseg>
</trk>
<trk>
<name>lhvba46</name>
<cmt>r</cmt>
<desc>Battice Chemin n°46 Thier Martin</desc>
<link href="https://chemins.be/battice/chemin/46"/><trkseg>
<trkpt lat="50.629613" lon="5.812641"><time>2026-05-07T19:36:49Z</time></trkpt>
<trkpt lat="50.630017" lon="5.813431"><time>2026-05-07T19:46:49Z</time></trkpt>
<trkpt lat="50.630280" lon="5.814629"><time>2026-05-07T19:56:49Z</time></trkpt>
</trkseg></trk>
<trk>
<name>lhvba46</name>
<cmt>s</cmt>
<desc>Battice Chemin n°46 Thier Martin</desc>
<link href="https://chemins.be/battice/chemin/46"/><trkseg>
<trkpt lat="50.630280" lon="5.814629"><time>2026-05-07T19:56:49Z</time></trkpt>
<trkpt lat="50.630446" lon="5.814773"><time>2026-05-07T20:06:49Z</time></trkpt>
<trkpt lat="50.630849" lon="5.816074"><time>2026-05-07T20:16:49Z</time></trkpt>
<trkpt lat="50.630846" lon="5.816184"><time>2026-05-07T20:26:49Z</time></trkpt>
</trkseg></trk>
<trk>
<name>lhvba46</name>
<cmt>v</cmt>
<desc>Battice Chemin n°46 Thier Martin</desc>
<link href="https://chemins.be/battice/chemin/46"/><trkseg>
<trkpt lat="50.630846" lon="5.816184"><time>2026-05-07T20:26:49Z</time></trkpt>
<trkpt lat="50.630854" lon="5.816600"><time>2026-05-07T20:36:49Z</time></trkpt>
</trkseg></trk>
<trk>
<name>lhvba46</name>
<cmt>d</cmt>
<desc>Battice Chemin n°46 Thier Martin</desc>
<link href="https://chemins.be/battice/chemin/46"/><trkseg>
<trkpt lat="50.630854" lon="5.816600"><time>2026-05-07T20:36:49Z</time></trkpt>
<trkpt lat="50.630972" lon="5.817011"><time>2026-05-07T20:46:49Z</time></trkpt>
<trkpt lat="50.631412" lon="5.817763"><time>2026-05-07T20:56:49Z</time></trkpt>
<trkpt lat="50.631913" lon="5.819420"><time>2026-05-07T21:06:49Z</time></trkpt>
<trkpt lat="50.632365" lon="5.821633"><time>2026-05-07T21:16:49Z</time></trkpt>
</trkseg>
</trk>
<trk>
<name>lhvba47</name>
<cmt>v</cmt>
<desc>Battice Chemin n°47 Ruelle de France</desc>
<link href="https://chemins.be/battice/chemin/47"/><trkseg>
<trkpt lat="50.626106" lon="5.823925"><time>2026-05-07T19:36:49Z</time></trkpt>
<trkpt lat="50.626482" lon="5.821183"><time>2026-05-07T19:46:49Z</time></trkpt>
<trkpt lat="50.626936" lon="5.819863"><time>2026-05-07T19:56:49Z</time></trkpt>
<trkpt lat="50.627468" lon="5.817860"><time>2026-05-07T20:06:49Z</time></trkpt>
</trkseg></trk>
<trk>
<name>lhvba47</name>
<cmt>q</cmt>
<desc>Battice Chemin n°47 Ruelle de France</desc>
<link href="https://chemins.be/battice/chemin/47"/><trkseg>
<trkpt lat="50.627468" lon="5.817860"><time>2026-05-07T20:06:49Z</time></trkpt>
<trkpt lat="50.628086" lon="5.816366"><time>2026-05-07T20:16:49Z</time></trkpt>
<trkpt lat="50.628073" lon="5.815769"><time>2026-05-07T20:26:49Z</time></trkpt>
<trkpt lat="50.627977" lon="5.815554"><time>2026-05-07T20:36:49Z</time></trkpt>
</trkseg>
</trk>
<trk>
<name>lhvba48</name>
<cmt>q</cmt>
<desc>Battice Chemin n°48 </desc>
<link href="https://chemins.be/battice/chemin/48"/><trkseg>
<trkpt lat="50.625417" lon="5.826025"><time>2026-05-07T19:36:49Z</time></trkpt>
<trkpt lat="50.625331" lon="5.825739"><time>2026-05-07T19:46:49Z</time></trkpt>
<trkpt lat="50.623441" lon="5.823762"><time>2026-05-07T19:56:49Z</time></trkpt>
</trkseg>
</trk>
<trk>
<name>lhvba49</name>
<cmt>q</cmt>
<desc>Battice Chemin n°49 </desc>
<link href="https://chemins.be/battice/chemin/49"/><trkseg>
<trkpt lat="50.626435" lon="5.821479"><time>2026-05-07T19:36:49Z</time></trkpt>
<trkpt lat="50.627214" lon="5.821379"><time>2026-05-07T19:46:49Z</time></trkpt>
<trkpt lat="50.627413" lon="5.820256"><time>2026-05-07T19:56:49Z</time></trkpt>
<trkpt lat="50.627123" lon="5.818976"><time>2026-05-07T20:06:49Z</time></trkpt>
</trkseg>
</trk>
<trk>
<name>lhvba51</name>
<cmt>v</cmt>
<desc>Battice Chemin n°51 Voie de la Chocolaterie</desc>
<link href="https://chemins.be/battice/chemin/51"/><trkseg>
<trkpt lat="50.627946" lon="5.815510"><time>2026-05-07T19:36:49Z</time></trkpt>
<trkpt lat="50.627327" lon="5.813950"><time>2026-05-07T19:46:49Z</time></trkpt>
<trkpt lat="50.626817" lon="5.812418"><time>2026-05-07T19:56:49Z</time></trkpt>
<trkpt lat="50.626796" lon="5.811856"><time>2026-05-07T20:06:49Z</time></trkpt>
<trkpt lat="50.626164" lon="5.809137"><time>2026-05-07T20:16:49Z</time></trkpt>
<trkpt lat="50.625462" lon="5.809186"><time>2026-05-07T20:26:49Z</time></trkpt>
<trkpt lat="50.625225" lon="5.809476"><time>2026-05-07T20:36:49Z</time></trkpt>
<trkpt lat="50.625067" lon="5.809103"><time>2026-05-07T20:46:49Z</time></trkpt>
<trkpt lat="50.625378" lon="5.807968"><time>2026-05-07T20:56:49Z</time></trkpt>
<trkpt lat="50.624375" lon="5.806905"><time>2026-05-07T21:06:49Z</time></trkpt>
</trkseg>
</trk>
<trk>
<name>lhvba52</name>
<cmt>v</cmt>
<desc>Battice Chemin n°52 Voie de la Chocolaterie</desc>
<link href="https://chemins.be/battice/chemin/52"/><trkseg>
<trkpt lat="50.629334" lon="5.813064"><time>2026-05-07T19:36:49Z</time></trkpt>
<trkpt lat="50.627654" lon="5.810765"><time>2026-05-07T19:46:49Z</time></trkpt>
<trkpt lat="50.626226" lon="5.809195"><time>2026-05-07T19:56:49Z</time></trkpt>
</trkseg>
</trk>
<trk>
<name>lhvba53</name>
<cmt>r</cmt>
<desc>Battice Chemin n°53 Thier Martin</desc>
<link href="https://chemins.be/battice/chemin/53"/><trkseg>
<trkpt lat="50.629922" lon="5.810623"><time>2026-05-07T19:36:49Z</time></trkpt>
<trkpt lat="50.629020" lon="5.809365"><time>2026-05-07T19:46:49Z</time></trkpt>
</trkseg></trk>
<trk>
<name>lhvba53</name>
<cmt>v</cmt>
<desc>Battice Chemin n°53 Thier Martin</desc>
<link href="https://chemins.be/battice/chemin/53"/><trkseg>
<trkpt lat="50.629020" lon="5.809365"><time>2026-05-07T19:46:49Z</time></trkpt>
<trkpt lat="50.628170" lon="5.809777"><time>2026-05-07T19:56:49Z</time></trkpt>
<trkpt lat="50.627674" lon="5.810639"><time>2026-05-07T20:06:49Z</time></trkpt>
</trkseg>
</trk>
<trk>
<name>lhvba57</name>
<cmt>q</cmt>
<desc>Battice Sentier n°57 </desc>
<link href="https://chemins.be/battice/sentier/57"/><trkseg>
<trkpt lat="50.637251" lon="5.779291"><time>2026-05-07T19:36:49Z</time></trkpt>
<trkpt lat="50.636693" lon="5.780203"><time>2026-05-07T19:46:49Z</time></trkpt>
<trkpt lat="50.636467" lon="5.781893"><time>2026-05-07T19:56:49Z</time></trkpt>
</trkseg></trk>
<trk>
<name>lhvba57</name>
<cmt>s</cmt>
<desc>Battice Sentier n°57 </desc>
<link href="https://chemins.be/battice/sentier/57"/><trkseg>
<trkpt lat="50.636467" lon="5.781893"><time>2026-05-07T19:56:49Z</time></trkpt>
<trkpt lat="50.636081" lon="5.784398"><time>2026-05-07T20:06:49Z</time></trkpt>
</trkseg>
</trk>
<trk>
<name>lhvba58</name>
<cmt>v</cmt>
<desc>Battice Chemin n°58 Vinâve</desc>
<link href="https://chemins.be/battice/chemin/58"/><trkseg>
<trkpt lat="50.618741" lon="5.807658"><time>2026-05-07T19:36:49Z</time></trkpt>
<trkpt lat="50.617996" lon="5.808866"><time>2026-05-07T19:46:49Z</time></trkpt>
</trkseg></trk>
<trk>
<name>lhvba58</name>
<cmt>s</cmt>
<desc>Battice Chemin n°58 Vinâve</desc>
<link href="https://chemins.be/battice/chemin/58"/><trkseg>
<trkpt lat="50.617996" lon="5.808866"><time>2026-05-07T19:46:49Z</time></trkpt>
<trkpt lat="50.617767" lon="5.809238"><time>2026-05-07T19:56:49Z</time></trkpt>
<trkpt lat="50.618061" lon="5.811255"><time>2026-05-07T20:06:49Z</time></trkpt>
<trkpt lat="50.617064" lon="5.812980"><time>2026-05-07T20:16:49Z</time></trkpt>
</trkseg>
</trk>
<trk>
<name>lhvba59</name>
<cmt>d</cmt>
<desc>Battice Chemin n°59 </desc>
<link href="https://chemins.be/battice/chemin/59"/><trkseg>
<trkpt lat="50.619255" lon="5.810176"><time>2026-05-07T19:36:49Z</time></trkpt>
<trkpt lat="50.618368" lon="5.810279"><time>2026-05-07T19:46:49Z</time></trkpt>
<trkpt lat="50.617913" lon="5.810026"><time>2026-05-07T19:56:49Z</time></trkpt>
</trkseg>
</trk>
<trk>
<name>lhvba6</name>
<cmt>v</cmt>
<desc>Battice Chemin n°6 Bouxhmont</desc>
<link href="https://chemins.be/battice/chemin/6"/><trkseg>
<trkpt lat="50.654303" lon="5.823033"><time>2026-05-07T19:36:49Z</time></trkpt>
<trkpt lat="50.653434" lon="5.823370"><time>2026-05-07T19:46:49Z</time></trkpt>
<trkpt lat="50.652605" lon="5.823593"><time>2026-05-07T19:56:49Z</time></trkpt>
<trkpt lat="50.652404" lon="5.823634"><time>2026-05-07T20:06:49Z</time></trkpt>
</trkseg>
</trk>
<trk>
<name>lhvba61</name>
<cmt>v</cmt>
<desc>Battice Chemin n°61 Vinâve</desc>
<link href="https://chemins.be/battice/chemin/61"/><trkseg>
<trkpt lat="50.621584" lon="5.799856"><time>2026-05-07T19:36:49Z</time></trkpt>
<trkpt lat="50.621388" lon="5.800002"><time>2026-05-07T19:46:49Z</time></trkpt>
<trkpt lat="50.621293" lon="5.800898"><time>2026-05-07T19:56:49Z</time></trkpt>
</trkseg></trk>
<trk>
<name>lhvba61</name>
<cmt>q</cmt>
<desc>Battice Chemin n°61 Vinâve</desc>
<link href="https://chemins.be/battice/chemin/61"/><trkseg>
<trkpt lat="50.621293" lon="5.800898"><time>2026-05-07T19:56:49Z</time></trkpt>
<trkpt lat="50.620724" lon="5.801097"><time>2026-05-07T20:06:49Z</time></trkpt>
<trkpt lat="50.619651" lon="5.801161"><time>2026-05-07T20:16:49Z</time></trkpt>
<trkpt lat="50.619210" lon="5.801582"><time>2026-05-07T20:26:49Z</time></trkpt>
</trkseg></trk>
<trk>
<name>lhvba61</name>
<cmt>v</cmt>
<desc>Battice Chemin n°61 Vinâve</desc>
<link href="https://chemins.be/battice/chemin/61"/><trkseg>
<trkpt lat="50.619210" lon="5.801582"><time>2026-05-07T20:26:49Z</time></trkpt>
<trkpt lat="50.618965" lon="5.803478"><time>2026-05-07T20:36:49Z</time></trkpt>
<trkpt lat="50.618573" lon="5.804036"><time>2026-05-07T20:46:49Z</time></trkpt>
<trkpt lat="50.618692" lon="5.804800"><time>2026-05-07T20:56:49Z</time></trkpt>
</trkseg>
</trk>
<trk>
<name>lhvba64</name>
<cmt>v</cmt>
<desc>Battice Chemin n°64 </desc>
<link href="https://chemins.be/battice/chemin/64"/><trkseg>
<trkpt lat="50.619133" lon="5.801340"><time>2026-05-07T19:36:49Z</time></trkpt>
<trkpt lat="50.617513" lon="5.802409"><time>2026-05-07T19:46:49Z</time></trkpt>
</trkseg>
</trk>
<trk>
<name>lhvba66</name>
<cmt>v</cmt>
<desc>Battice Chemin n°66 Bois de Herve</desc>
<link href="https://chemins.be/battice/chemin/66"/><trkseg>
<trkpt lat="50.617162" lon="5.789926"><time>2026-05-07T19:36:49Z</time></trkpt>
<trkpt lat="50.617445" lon="5.789188"><time>2026-05-07T19:46:49Z</time></trkpt>
<trkpt lat="50.618556" lon="5.787806"><time>2026-05-07T19:56:49Z</time></trkpt>
<trkpt lat="50.619101" lon="5.786432"><time>2026-05-07T20:06:49Z</time></trkpt>
<trkpt lat="50.619626" lon="5.782869"><time>2026-05-07T20:16:49Z</time></trkpt>
<trkpt lat="50.619792" lon="5.782132"><time>2026-05-07T20:26:49Z</time></trkpt>
<trkpt lat="50.620288" lon="5.781248"><time>2026-05-07T20:36:49Z</time></trkpt>
<trkpt lat="50.620647" lon="5.781283"><time>2026-05-07T20:46:49Z</time></trkpt>
</trkseg>
</trk>
<trk>
<name>lhvba67</name>
<cmt>v</cmt>
<desc>Battice Chemin n°67 </desc>
<link href="https://chemins.be/battice/chemin/67"/><trkseg>
<trkpt lat="50.618213" lon="5.793943"><time>2026-05-07T19:36:49Z</time></trkpt>
<trkpt lat="50.618289" lon="5.794998"><time>2026-05-07T19:46:49Z</time></trkpt>
<trkpt lat="50.618458" lon="5.795702"><time>2026-05-07T19:56:49Z</time></trkpt>
<trkpt lat="50.619302" lon="5.796919"><time>2026-05-07T20:06:49Z</time></trkpt>
<trkpt lat="50.619547" lon="5.797273"><time>2026-05-07T20:16:49Z</time></trkpt>
<trkpt lat="50.619477" lon="5.798269"><time>2026-05-07T20:26:49Z</time></trkpt>
</trkseg>
</trk>
<trk>
<name>lhvba68</name>
<cmt>q</cmt>
<desc>Battice Chemin n°68 Bois de Herve</desc>
<link href="https://chemins.be/battice/chemin/68"/><trkseg>
<trkpt lat="50.620119" lon="5.794123"><time>2026-05-07T19:36:49Z</time></trkpt>
<trkpt lat="50.619199" lon="5.790913"><time>2026-05-07T19:46:49Z</time></trkpt>
</trkseg></trk>
<trk>
<name>lhvba68</name>
<cmt>r</cmt>
<desc>Battice Chemin n°68 Bois de Herve</desc>
<link href="https://chemins.be/battice/chemin/68"/><trkseg>
<trkpt lat="50.619199" lon="5.790913"><time>2026-05-07T19:46:49Z</time></trkpt>
<trkpt lat="50.619068" lon="5.790492"><time>2026-05-07T19:56:49Z</time></trkpt>
<trkpt lat="50.618496" lon="5.790097"><time>2026-05-07T20:06:49Z</time></trkpt>
</trkseg></trk>
<trk>
<name>lhvba68</name>
<cmt>q</cmt>
<desc>Battice Chemin n°68 Bois de Herve</desc>
<link href="https://chemins.be/battice/chemin/68"/><trkseg>
<trkpt lat="50.618496" lon="5.790097"><time>2026-05-07T20:06:49Z</time></trkpt>
<trkpt lat="50.617979" lon="5.788553"><time>2026-05-07T20:16:49Z</time></trkpt>
</trkseg>
</trk>
<trk>
<name>lhvba69</name>
<cmt>q</cmt>
<desc>Battice Chemin n°69 </desc>
<link href="https://chemins.be/battice/chemin/69"/><trkseg>
<trkpt lat="50.620059" lon="5.794089"><time>2026-05-07T19:36:49Z</time></trkpt>
<trkpt lat="50.620081" lon="5.795067"><time>2026-05-07T19:46:49Z</time></trkpt>
<trkpt lat="50.619357" lon="5.796063"><time>2026-05-07T19:56:49Z</time></trkpt>
<trkpt lat="50.619183" lon="5.796732"><time>2026-05-07T20:06:49Z</time></trkpt>
</trkseg>
</trk>
<trk>
<name>lhvba76</name>
<cmt>v</cmt>
<desc>Battice Chemin n°76 Bois de Herve</desc>
<link href="https://chemins.be/battice/chemin/76"/><trkseg>
<trkpt lat="50.611648" lon="5.779230"><time>2026-05-07T19:36:49Z</time></trkpt>
<trkpt lat="50.612389" lon="5.778913"><time>2026-05-07T19:46:49Z</time></trkpt>
<trkpt lat="50.612541" lon="5.778974"><time>2026-05-07T19:56:49Z</time></trkpt>
<trkpt lat="50.612963" lon="5.778970"><time>2026-05-07T20:06:49Z</time></trkpt>
<trkpt lat="50.613233" lon="5.779023"><time>2026-05-07T20:16:49Z</time></trkpt>
<trkpt lat="50.613520" lon="5.779074"><time>2026-05-07T20:26:49Z</time></trkpt>
<trkpt lat="50.614792" lon="5.779494"><time>2026-05-07T20:36:49Z</time></trkpt>
</trkseg>
</trk>
<trk>
<name>lhvba77</name>
<cmt>v</cmt>
<desc>Battice Chemin n°77 </desc>
<link href="https://chemins.be/battice/chemin/77"/><trkseg>
<trkpt lat="50.611652" lon="5.779269"><time>2026-05-07T19:36:49Z</time></trkpt>
<trkpt lat="50.611713" lon="5.780946"><time>2026-05-07T19:46:49Z</time></trkpt>
<trkpt lat="50.611872" lon="5.781923"><time>2026-05-07T19:56:49Z</time></trkpt>
</trkseg>
</trk>
<trk>
<name>lhvba79</name>
<cmt>q</cmt>
<desc>Battice Chemin n°79 </desc>
<link href="https://chemins.be/battice/chemin/79"/><trkseg>
<trkpt lat="50.613178" lon="5.784772"><time>2026-05-07T19:36:49Z</time></trkpt>
<trkpt lat="50.612156" lon="5.786403"><time>2026-05-07T19:46:49Z</time></trkpt>
<trkpt lat="50.611067" lon="5.787047"><time>2026-05-07T19:56:49Z</time></trkpt>
</trkseg>
</trk>
<trk>
<name>lhvba8</name>
<cmt>q</cmt>
<desc>Battice Chemin n°8 </desc>
<link href="https://chemins.be/battice/chemin/8"/><trkseg>
<trkpt lat="50.650495" lon="5.834337"><time>2026-05-07T19:36:49Z</time></trkpt>
<trkpt lat="50.651659" lon="5.834663"><time>2026-05-07T19:46:49Z</time></trkpt>
<trkpt lat="50.652791" lon="5.833633"><time>2026-05-07T19:56:49Z</time></trkpt>
<trkpt lat="50.653005" lon="5.833216"><time>2026-05-07T20:06:49Z</time></trkpt>
</trkseg></trk>
<trk>
<name>lhvba8</name>
<cmt>v</cmt>
<desc>Battice Chemin n°8 </desc>
<link href="https://chemins.be/battice/chemin/8"/><trkseg>
<trkpt lat="50.653005" lon="5.833216"><time>2026-05-07T20:06:49Z</time></trkpt>
<trkpt lat="50.653368" lon="5.832173"><time>2026-05-07T20:16:49Z</time></trkpt>
</trkseg>
</trk>
<trk>
<name>lhvba84</name>
<cmt>v</cmt>
<desc>Battice Chemin n°84 </desc>
<link href="https://chemins.be/battice/chemin/84"/><trkseg>
<trkpt lat="50.618187" lon="5.784264"><time>2026-05-07T19:36:49Z</time></trkpt>
<trkpt lat="50.618460" lon="5.784216"><time>2026-05-07T19:46:49Z</time></trkpt>
<trkpt lat="50.618732" lon="5.784060"><time>2026-05-07T19:56:49Z</time></trkpt>
<trkpt lat="50.619174" lon="5.784216"><time>2026-05-07T20:06:49Z</time></trkpt>
<trkpt lat="50.619402" lon="5.784189"><time>2026-05-07T20:16:49Z</time></trkpt>
</trkseg>
</trk>
<trk>
<name>lhvba85</name>
<cmt>v</cmt>
<desc>Battice Chemin n°85 </desc>
<link href="https://chemins.be/battice/chemin/85"/><trkseg>
<trkpt lat="50.618651" lon="5.780612"><time>2026-05-07T19:36:49Z</time></trkpt>
<trkpt lat="50.618904" lon="5.781565"><time>2026-05-07T19:46:49Z</time></trkpt>
<trkpt lat="50.618907" lon="5.782067"><time>2026-05-07T19:56:49Z</time></trkpt>
<trkpt lat="50.619286" lon="5.782309"><time>2026-05-07T20:06:49Z</time></trkpt>
<trkpt lat="50.619637" lon="5.782882"><time>2026-05-07T20:16:49Z</time></trkpt>
</trkseg></trk>
<trk>
<name>lhvba85</name>
<cmt>q</cmt>
<desc>Battice Chemin n°85 </desc>
<link href="https://chemins.be/battice/chemin/85"/><trkseg>
<trkpt lat="50.619637" lon="5.782882"><time>2026-05-07T20:16:49Z</time></trkpt>
<trkpt lat="50.619942" lon="5.783196"><time>2026-05-07T20:26:49Z</time></trkpt>
<trkpt lat="50.620541" lon="5.784693"><time>2026-05-07T20:36:49Z</time></trkpt>
</trkseg>
</trk>
<trk>
<name>lhvba87</name>
<cmt>v</cmt>
<desc>Battice Chemin n°87 </desc>
<link href="https://chemins.be/battice/chemin/87"/><trkseg>
<trkpt lat="50.631569" lon="5.788696"><time>2026-05-07T19:36:49Z</time></trkpt>
<trkpt lat="50.632215" lon="5.788503"><time>2026-05-07T19:46:49Z</time></trkpt>
<trkpt lat="50.633366" lon="5.788953"><time>2026-05-07T19:56:49Z</time></trkpt>
</trkseg></trk>
<trk>
<name>lhvba87</name>
<cmt>d</cmt>
<desc>Battice Chemin n°87 </desc>
<link href="https://chemins.be/battice/chemin/87"/><trkseg>
<trkpt lat="50.633366" lon="5.788953"><time>2026-05-07T19:56:49Z</time></trkpt>
<trkpt lat="50.633908" lon="5.789136"><time>2026-05-07T20:06:49Z</time></trkpt>
</trkseg>
</trk>
<trk>
<name>lhvba89</name>
<cmt>q</cmt>
<desc>Battice Chemin n°89 </desc>
<link href="https://chemins.be/battice/chemin/89"/><trkseg>
<trkpt lat="50.620807" lon="5.790757"><time>2026-05-07T19:36:49Z</time></trkpt>
<trkpt lat="50.621254" lon="5.790095"><time>2026-05-07T19:46:49Z</time></trkpt>
<trkpt lat="50.622366" lon="5.789452"><time>2026-05-07T19:56:49Z</time></trkpt>
<trkpt lat="50.622611" lon="5.788221"><time>2026-05-07T20:06:49Z</time></trkpt>
<trkpt lat="50.623092" lon="5.786977"><time>2026-05-07T20:16:49Z</time></trkpt>
<trkpt lat="50.623691" lon="5.786791"><time>2026-05-07T20:26:49Z</time></trkpt>
<trkpt lat="50.625378" lon="5.785518"><time>2026-05-07T20:36:49Z</time></trkpt>
<trkpt lat="50.625832" lon="5.784559"><time>2026-05-07T20:46:49Z</time></trkpt>
</trkseg>
</trk>
<trk>
<name>lhvba91</name>
<cmt>q</cmt>
<desc>Battice Chemin n°91 </desc>
<link href="https://chemins.be/battice/chemin/91"/><trkseg>
<trkpt lat="50.629151" lon="5.789752"><time>2026-05-07T19:36:49Z</time></trkpt>
<trkpt lat="50.628465" lon="5.788329"><time>2026-05-07T19:46:49Z</time></trkpt>
<trkpt lat="50.628406" lon="5.787599"><time>2026-05-07T19:56:49Z</time></trkpt>
<trkpt lat="50.628406" lon="5.786841"><time>2026-05-07T20:06:49Z</time></trkpt>
</trkseg>
</trk>
<trk>
<name>lhvba92</name>
<cmt>q</cmt>
<desc>Battice Chemin n°92 </desc>
<link href="https://chemins.be/battice/chemin/92"/><trkseg>
<trkpt lat="50.627287" lon="5.791558"><time>2026-05-07T19:36:49Z</time></trkpt>
<trkpt lat="50.627543" lon="5.792001"><time>2026-05-07T19:46:49Z</time></trkpt>
<trkpt lat="50.628448" lon="5.792867"><time>2026-05-07T19:56:49Z</time></trkpt>
<trkpt lat="50.629086" lon="5.793117"><time>2026-05-07T20:06:49Z</time></trkpt>
<trkpt lat="50.629716" lon="5.793053"><time>2026-05-07T20:16:49Z</time></trkpt>
<trkpt lat="50.630601" lon="5.793471"><time>2026-05-07T20:26:49Z</time></trkpt>
<trkpt lat="50.632779" lon="5.793364"><time>2026-05-07T20:36:49Z</time></trkpt>
</trkseg>
</trk>
<trk>
<name>lhvba93</name>
<cmt>q</cmt>
<desc>Battice Chemin n°93 </desc>
<link href="https://chemins.be/battice/chemin/93"/><trkseg>
<trkpt lat="50.628364" lon="5.792871"><time>2026-05-07T19:36:49Z</time></trkpt>
<trkpt lat="50.628582" lon="5.793672"><time>2026-05-07T19:46:49Z</time></trkpt>
<trkpt lat="50.627847" lon="5.794845"><time>2026-05-07T19:56:49Z</time></trkpt>
<trkpt lat="50.625496" lon="5.796590"><time>2026-05-07T20:06:49Z</time></trkpt>
<trkpt lat="50.624743" lon="5.798110"><time>2026-05-07T20:16:49Z</time></trkpt>
</trkseg>
</trk>
<trk>
<name>lhvba94</name>
<cmt>v</cmt>
<desc>Battice Chemin n°94 Trou du Chat</desc>
<link href="https://chemins.be/battice/chemin/94"/><trkseg>
<trkpt lat="50.621646" lon="5.799953"><time>2026-05-07T19:36:49Z</time></trkpt>
<trkpt lat="50.622508" lon="5.799371"><time>2026-05-07T19:46:49Z</time></trkpt>
<trkpt lat="50.622633" lon="5.799432"><time>2026-05-07T19:56:49Z</time></trkpt>
<trkpt lat="50.622833" lon="5.799989"><time>2026-05-07T20:06:49Z</time></trkpt>
<trkpt lat="50.622922" lon="5.800020"><time>2026-05-07T20:16:49Z</time></trkpt>
<trkpt lat="50.623083" lon="5.800124"><time>2026-05-07T20:26:49Z</time></trkpt>
<trkpt lat="50.623715" lon="5.800638"><time>2026-05-07T20:36:49Z</time></trkpt>
<trkpt lat="50.623939" lon="5.800701"><time>2026-05-07T20:46:49Z</time></trkpt>
<trkpt lat="50.624637" lon="5.800976"><time>2026-05-07T20:56:49Z</time></trkpt>
<trkpt lat="50.625118" lon="5.801316"><time>2026-05-07T21:06:49Z</time></trkpt>
<trkpt lat="50.625249" lon="5.801674"><time>2026-05-07T21:16:49Z</time></trkpt>
<trkpt lat="50.625398" lon="5.802710"><time>2026-05-07T21:26:49Z</time></trkpt>
<trkpt lat="50.625597" lon="5.803338"><time>2026-05-07T21:36:49Z</time></trkpt>
<trkpt lat="50.625648" lon="5.803580"><time>2026-05-07T21:46:49Z</time></trkpt>
<trkpt lat="50.625663" lon="5.803849"><time>2026-05-07T21:56:49Z</time></trkpt>
</trkseg>
</trk>
<trk>
<name>lhvba95</name>
<cmt>q</cmt>
<desc>Battice Chemin n°95 </desc>
<link href="https://chemins.be/battice/chemin/95"/><trkseg>
<trkpt lat="50.623474" lon="5.800372"><time>2026-05-07T19:36:49Z</time></trkpt>
<trkpt lat="50.624753" lon="5.798233"><time>2026-05-07T19:46:49Z</time></trkpt>
</trkseg>
</trk>
<trk>
<name>lhvba96</name>
<cmt>v</cmt>
<desc>Battice Chemin n°96 Rue des deux Tilleuls / Fays de José / Rue de José</desc>
<link href="https://chemins.be/battice/chemin/96"/><trkseg>
<trkpt lat="50.620236" lon="5.775416"><time>2026-05-07T19:36:49Z</time></trkpt>
<trkpt lat="50.620301" lon="5.775291"><time>2026-05-07T19:46:49Z</time></trkpt>
<trkpt lat="50.620283" lon="5.774499"><time>2026-05-07T19:56:49Z</time></trkpt>
<trkpt lat="50.620429" lon="5.773641"><time>2026-05-07T20:06:49Z</time></trkpt>
<trkpt lat="50.620817" lon="5.772706"><time>2026-05-07T20:16:49Z</time></trkpt>
<trkpt lat="50.621724" lon="5.772817"><time>2026-05-07T20:26:49Z</time></trkpt>
<trkpt lat="50.622687" lon="5.772747"><time>2026-05-07T20:36:49Z</time></trkpt>
</trkseg></trk>
<trk>
<name>lhvba96</name>
<cmt>q</cmt>
<desc>Battice Chemin n°96 Rue des deux Tilleuls / Fays de José / Rue de José</desc>
<link href="https://chemins.be/battice/chemin/96"/><trkseg>
<trkpt lat="50.622687" lon="5.772747"><time>2026-05-07T20:36:49Z</time></trkpt>
<trkpt lat="50.625018" lon="5.772548"><time>2026-05-07T20:46:49Z</time></trkpt>
<trkpt lat="50.626691" lon="5.772499"><time>2026-05-07T20:56:49Z</time></trkpt>
</trkseg></trk>
<trk>
<name>lhvba96</name>
<cmt>r</cmt>
<desc>Battice Chemin n°96 Rue des deux Tilleuls / Fays de José / Rue de José</desc>
<link href="https://chemins.be/battice/chemin/96"/><trkseg>
<trkpt lat="50.626691" lon="5.772499"><time>2026-05-07T20:56:49Z</time></trkpt>
<trkpt lat="50.626838" lon="5.772263"><time>2026-05-07T21:06:49Z</time></trkpt>
<trkpt lat="50.628730" lon="5.772729"><time>2026-05-07T21:16:49Z</time></trkpt>
<trkpt lat="50.629789" lon="5.771417"><time>2026-05-07T21:26:49Z</time></trkpt>
<trkpt lat="50.629805" lon="5.770768"><time>2026-05-07T21:36:49Z</time></trkpt>
</trkseg></trk>
<trk>
<name>lhvba96</name>
<cmt>v</cmt>
<desc>Battice Chemin n°96 Rue des deux Tilleuls / Fays de José / Rue de José</desc>
<link href="https://chemins.be/battice/chemin/96"/><trkseg>
<trkpt lat="50.629805" lon="5.770768"><time>2026-05-07T21:36:49Z</time></trkpt>
<trkpt lat="50.631387" lon="5.768553"><time>2026-05-07T21:46:49Z</time></trkpt>
<trkpt lat="50.631613" lon="5.767782"><time>2026-05-07T21:56:49Z</time></trkpt>
<trkpt lat="50.631705" lon="5.766809"><time>2026-05-07T22:06:49Z</time></trkpt>
<trkpt lat="50.632235" lon="5.765326"><time>2026-05-07T22:16:49Z</time></trkpt>
<trkpt lat="50.633582" lon="5.764023"><time>2026-05-07T22:26:49Z</time></trkpt>
</trkseg>
</trk>
<trk>
<name>lhvba97</name>
<cmt>v</cmt>
<desc>Battice Chemin n°97 </desc>
<link href="https://chemins.be/battice/chemin/97"/><trkseg>
<trkpt lat="50.621149" lon="5.777281"><time>2026-05-07T19:36:49Z</time></trkpt>
<trkpt lat="50.621787" lon="5.776537"><time>2026-05-07T19:46:49Z</time></trkpt>
<trkpt lat="50.622010" lon="5.776713"><time>2026-05-07T19:56:49Z</time></trkpt>
<trkpt lat="50.622212" lon="5.776380"><time>2026-05-07T20:06:49Z</time></trkpt>
<trkpt lat="50.622155" lon="5.775912"><time>2026-05-07T20:16:49Z</time></trkpt>
<trkpt lat="50.622420" lon="5.775538"><time>2026-05-07T20:26:49Z</time></trkpt>
<trkpt lat="50.622674" lon="5.775362"><time>2026-05-07T20:36:49Z</time></trkpt>
<trkpt lat="50.622777" lon="5.772778"><time>2026-05-07T20:46:49Z</time></trkpt>
</trkseg>
</trk>
<trk>
<name>lhvba98</name>
<cmt>v</cmt>
<desc>Battice Chemin n°98 Rue des deux Tilleuls</desc>
<link href="https://chemins.be/battice/chemin/98"/><trkseg>
<trkpt lat="50.619638" lon="5.774296"><time>2026-05-07T19:36:49Z</time></trkpt>
<trkpt lat="50.620411" lon="5.773598"><time>2026-05-07T19:46:49Z</time></trkpt>
</trkseg>
</trk>
<trk>
<name>lhvba99</name>
<cmt>q</cmt>
<desc>Battice Chemin n°99 </desc>
<link href="https://chemins.be/battice/chemin/99"/><trkseg>
<trkpt lat="50.620750" lon="5.772526"><time>2026-05-07T19:36:49Z</time></trkpt>
<trkpt lat="50.620052" lon="5.771976"><time>2026-05-07T19:46:49Z</time></trkpt>
</trkseg>
</trk>
<trk>
<name>lhvbai10</name>
<cmt>v</cmt>
<desc>Battice Chemin n°i10 </desc>
<link href="https://chemins.be/battice/chemin/i10"/><trkseg>
<trkpt lat="50.634091" lon="5.816631"><time>2026-05-07T19:36:49Z</time></trkpt>
<trkpt lat="50.634001" lon="5.816967"><time>2026-05-07T19:46:49Z</time></trkpt>
<trkpt lat="50.634368" lon="5.817533"><time>2026-05-07T19:56:49Z</time></trkpt>
<trkpt lat="50.634422" lon="5.818198"><time>2026-05-07T20:06:49Z</time></trkpt>
<trkpt lat="50.634164" lon="5.818849"><time>2026-05-07T20:16:49Z</time></trkpt>
<trkpt lat="50.633987" lon="5.819457"><time>2026-05-07T20:26:49Z</time></trkpt>
<trkpt lat="50.634078" lon="5.820608"><time>2026-05-07T20:36:49Z</time></trkpt>
</trkseg>
</trk>
<trk>
<name>lhvbai11</name>
<cmt>v</cmt>
<desc>Battice Sentier n°i11 </desc>
<link href="https://chemins.be/battice/sentier/i11"/><trkseg>
<trkpt lat="50.635530" lon="5.831524"><time>2026-05-07T19:36:49Z</time></trkpt>
<trkpt lat="50.635743" lon="5.831999"><time>2026-05-07T19:46:49Z</time></trkpt>
<trkpt lat="50.635625" lon="5.832672"><time>2026-05-07T19:56:49Z</time></trkpt>
<trkpt lat="50.635736" lon="5.832801"><time>2026-05-07T20:06:49Z</time></trkpt>
<trkpt lat="50.635141" lon="5.833930"><time>2026-05-07T20:16:49Z</time></trkpt>
<trkpt lat="50.632310" lon="5.838164"><time>2026-05-07T20:26:49Z</time></trkpt>
<trkpt lat="50.631390" lon="5.839377"><time>2026-05-07T20:36:49Z</time></trkpt>
<trkpt lat="50.631283" lon="5.839710"><time>2026-05-07T20:46:49Z</time></trkpt>
</trkseg>
</trk>
<trk>
<name>lhvbai12</name>
<cmt>v</cmt>
<desc>Battice Chemin n°i12 </desc>
<link href="https://chemins.be/battice/chemin/i12"/><trkseg>
<trkpt lat="50.634354" lon="5.822055"><time>2026-05-07T19:36:49Z</time></trkpt>
<trkpt lat="50.634871" lon="5.823013"><time>2026-05-07T19:46:49Z</time></trkpt>
<trkpt lat="50.635193" lon="5.825688"><time>2026-05-07T19:56:49Z</time></trkpt>
<trkpt lat="50.635302" lon="5.829436"><time>2026-05-07T20:06:49Z</time></trkpt>
</trkseg>
</trk>
<trk>
<name>lhvbai13</name>
<cmt>v</cmt>
<desc>Battice Sentier n°i13 </desc>
<link href="https://chemins.be/battice/sentier/i13"/><trkseg>
<trkpt lat="50.635230" lon="5.826925"><time>2026-05-07T19:36:49Z</time></trkpt>
<trkpt lat="50.635593" lon="5.829718"><time>2026-05-07T19:46:49Z</time></trkpt>
<trkpt lat="50.635738" lon="5.830977"><time>2026-05-07T19:56:49Z</time></trkpt>
<trkpt lat="50.635850" lon="5.831116"><time>2026-05-07T20:06:49Z</time></trkpt>
<trkpt lat="50.635859" lon="5.831517"><time>2026-05-07T20:16:49Z</time></trkpt>
<trkpt lat="50.635797" lon="5.831735"><time>2026-05-07T20:26:49Z</time></trkpt>
<trkpt lat="50.635713" lon="5.831899"><time>2026-05-07T20:36:49Z</time></trkpt>
</trkseg>
</trk>
<trk>
<name>lhvbai14</name>
<cmt>v</cmt>
<desc>Battice Sentier n°i14 </desc>
<link href="https://chemins.be/battice/sentier/i14"/><trkseg>
<trkpt lat="50.625270" lon="5.853048"><time>2026-05-07T19:36:49Z</time></trkpt>
<trkpt lat="50.625173" lon="5.853738"><time>2026-05-07T19:46:49Z</time></trkpt>
<trkpt lat="50.625025" lon="5.853876"><time>2026-05-07T19:56:49Z</time></trkpt>
</trkseg>
</trk>
<trk>
<name>lhvbai15</name>
<cmt>v</cmt>
<desc>Battice Chemin n°i15 </desc>
<link href="https://chemins.be/battice/chemin/i15"/><trkseg>
<trkpt lat="50.636475" lon="5.841971"><time>2026-05-07T19:36:49Z</time></trkpt>
<trkpt lat="50.636983" lon="5.842207"><time>2026-05-07T19:46:49Z</time></trkpt>
<trkpt lat="50.637206" lon="5.842593"><time>2026-05-07T19:56:49Z</time></trkpt>
<trkpt lat="50.637305" lon="5.844725"><time>2026-05-07T20:06:49Z</time></trkpt>
<trkpt lat="50.637895" lon="5.846863"><time>2026-05-07T20:16:49Z</time></trkpt>
<trkpt lat="50.637895" lon="5.848159"><time>2026-05-07T20:26:49Z</time></trkpt>
<trkpt lat="50.638267" lon="5.850566"><time>2026-05-07T20:36:49Z</time></trkpt>
</trkseg>
</trk>
<trk>
<name>lhvbai2</name>
<cmt>v</cmt>
<desc>Battice Sentier n°i2 </desc>
<link href="https://chemins.be/battice/sentier/i2"/><trkseg>
<trkpt lat="50.637442" lon="5.783405"><time>2026-05-07T19:36:49Z</time></trkpt>
<trkpt lat="50.637468" lon="5.783606"><time>2026-05-07T19:46:49Z</time></trkpt>
<trkpt lat="50.637234" lon="5.783861"><time>2026-05-07T19:56:49Z</time></trkpt>
<trkpt lat="50.636913" lon="5.784317"><time>2026-05-07T20:06:49Z</time></trkpt>
</trkseg>
</trk>
<trk>
<name>lhvbai4</name>
<cmt>v</cmt>
<desc>Battice Chemin n°i4 </desc>
<link href="https://chemins.be/battice/chemin/i4"/><trkseg>
<trkpt lat="50.633694" lon="5.781746"><time>2026-05-07T19:36:49Z</time></trkpt>
<trkpt lat="50.633717" lon="5.782653"><time>2026-05-07T19:46:49Z</time></trkpt>
<trkpt lat="50.633794" lon="5.784381"><time>2026-05-07T19:56:49Z</time></trkpt>
<trkpt lat="50.633591" lon="5.785238"><time>2026-05-07T20:06:49Z</time></trkpt>
<trkpt lat="50.633500" lon="5.786053"><time>2026-05-07T20:16:49Z</time></trkpt>
<trkpt lat="50.633444" lon="5.787198"><time>2026-05-07T20:26:49Z</time></trkpt>
<trkpt lat="50.633394" lon="5.789061"><time>2026-05-07T20:36:49Z</time></trkpt>
<trkpt lat="50.633548" lon="5.790068"><time>2026-05-07T20:46:49Z</time></trkpt>
</trkseg>
</trk>
<trk>
<name>lhvbai5</name>
<cmt>v</cmt>
<desc>Battice Chemin n°i5 </desc>
<link href="https://chemins.be/battice/chemin/i5"/><trkseg>
<trkpt lat="50.653023" lon="5.819373"><time>2026-05-07T19:36:49Z</time></trkpt>
<trkpt lat="50.651544" lon="5.820716"><time>2026-05-07T19:46:49Z</time></trkpt>
<trkpt lat="50.651281" lon="5.821279"><time>2026-05-07T19:56:49Z</time></trkpt>
</trkseg>
</trk>
<trk>
<name>lhvbai6</name>
<cmt>v</cmt>
<desc>Battice Chemin n°i6 </desc>
<link href="https://chemins.be/battice/chemin/i6"/><trkseg>
<trkpt lat="50.636678" lon="5.811918"><time>2026-05-07T19:36:49Z</time></trkpt>
<trkpt lat="50.637920" lon="5.810432"><time>2026-05-07T19:46:49Z</time></trkpt>
</trkseg>
</trk>
<trk>
<name>lhvbai7</name>
<cmt>v</cmt>
<desc>Battice Chemin n°i7 </desc>
<link href="https://chemins.be/battice/chemin/i7"/><trkseg>
<trkpt lat="50.630840" lon="5.816593"><time>2026-05-07T19:36:49Z</time></trkpt>
<trkpt lat="50.630908" lon="5.817083"><time>2026-05-07T19:46:49Z</time></trkpt>
<trkpt lat="50.630940" lon="5.817204"><time>2026-05-07T19:56:49Z</time></trkpt>
<trkpt lat="50.630915" lon="5.817612"><time>2026-05-07T20:06:49Z</time></trkpt>
<trkpt lat="50.631900" lon="5.819779"><time>2026-05-07T20:16:49Z</time></trkpt>
<trkpt lat="50.632850" lon="5.821299"><time>2026-05-07T20:26:49Z</time></trkpt>
</trkseg>
</trk>
<trk>
<name>lhvbai8</name>
<cmt>v</cmt>
<desc>Battice Chemin n°i8 </desc>
<link href="https://chemins.be/battice/chemin/i8"/><trkseg>
<trkpt lat="50.632302" lon="5.821683"><time>2026-05-07T19:36:49Z</time></trkpt>
<trkpt lat="50.633174" lon="5.821196"><time>2026-05-07T19:46:49Z</time></trkpt>
<trkpt lat="50.634043" lon="5.820630"><time>2026-05-07T19:56:49Z</time></trkpt>
<trkpt lat="50.634692" lon="5.820520"><time>2026-05-07T20:06:49Z</time></trkpt>
</trkseg></trk>
<trk>
<name>lhvbai8</name>
<cmt>s</cmt>
<desc>Battice Chemin n°i8 </desc>
<link href="https://chemins.be/battice/chemin/i8"/><trkseg>
<trkpt lat="50.634692" lon="5.820520"><time>2026-05-07T20:06:49Z</time></trkpt>
<trkpt lat="50.635751" lon="5.820576"><time>2026-05-07T20:16:49Z</time></trkpt>
</trkseg></trk>
<trk>
<name>lhvbai8</name>
<cmt>d</cmt>
<desc>Battice Chemin n°i8 </desc>
<link href="https://chemins.be/battice/chemin/i8"/><trkseg>
<trkpt lat="50.635751" lon="5.820576"><time>2026-05-07T20:16:49Z</time></trkpt>
<trkpt lat="50.636666" lon="5.820624"><time>2026-05-07T20:26:49Z</time></trkpt>
</trkseg>
</trk>
<trk>
<name>lhvbai9</name>
<cmt>v</cmt>
<desc>Battice Chemin n°i9 Xhéneumont</desc>
<link href="https://chemins.be/battice/chemin/i9"/><trkseg>
<trkpt lat="50.635024" lon="5.804572"><time>2026-05-07T19:36:49Z</time></trkpt>
<trkpt lat="50.634734" lon="5.803943"><time>2026-05-07T19:46:49Z</time></trkpt>
<trkpt lat="50.634253" lon="5.803857"><time>2026-05-07T19:56:49Z</time></trkpt>
<trkpt lat="50.633772" lon="5.804000"><time>2026-05-07T20:06:49Z</time></trkpt>
<trkpt lat="50.633520" lon="5.804386"><time>2026-05-07T20:16:49Z</time></trkpt>
<trkpt lat="50.633836" lon="5.805716"><time>2026-05-07T20:26:49Z</time></trkpt>
<trkpt lat="50.633718" lon="5.807347"><time>2026-05-07T20:36:49Z</time></trkpt>
<trkpt lat="50.633935" lon="5.810995"><time>2026-05-07T20:46:49Z</time></trkpt>
<trkpt lat="50.633754" lon="5.813756"><time>2026-05-07T20:56:49Z</time></trkpt>
<trkpt lat="50.634099" lon="5.816689"><time>2026-05-07T21:06:49Z</time></trkpt>
<trkpt lat="50.634298" lon="5.817132"><time>2026-05-07T21:16:49Z</time></trkpt>
<trkpt lat="50.635296" lon="5.816957"><time>2026-05-07T21:26:49Z</time></trkpt>
<trkpt lat="50.635505" lon="5.817157"><time>2026-05-07T21:36:49Z</time></trkpt>
<trkpt lat="50.635842" lon="5.817590"><time>2026-05-07T21:46:49Z</time></trkpt>
<trkpt lat="50.636641" lon="5.818205"><time>2026-05-07T21:56:49Z</time></trkpt>
</trkseg>
</trk>
<trk>
<name>lhvbaL38</name>
<cmt>v</cmt>
<desc>Battice Chemin n°L38 RAVeL5 L38</desc>
<link href="https://chemins.be/battice/chemin/L38"/><trkseg>
<trkpt lat="50.637792" lon="5.762366"><time>2026-05-07T19:36:49Z</time></trkpt>
<trkpt lat="50.638510" lon="5.769174"><time>2026-05-07T19:46:49Z</time></trkpt>
<trkpt lat="50.639486" lon="5.777800"><time>2026-05-07T19:56:49Z</time></trkpt>
<trkpt lat="50.640005" lon="5.782397"><time>2026-05-07T20:06:49Z</time></trkpt>
<trkpt lat="50.640479" lon="5.784108"><time>2026-05-07T20:16:49Z</time></trkpt>
<trkpt lat="50.641471" lon="5.787616"><time>2026-05-07T20:26:49Z</time></trkpt>
<trkpt lat="50.642394" lon="5.790811"><time>2026-05-07T20:36:49Z</time></trkpt>
<trkpt lat="50.642593" lon="5.791468"><time>2026-05-07T20:46:49Z</time></trkpt>
<trkpt lat="50.643242" lon="5.792788"><time>2026-05-07T20:56:49Z</time></trkpt>
<trkpt lat="50.643749" lon="5.793242"><time>2026-05-07T21:06:49Z</time></trkpt>
<trkpt lat="50.645626" lon="5.794854"><time>2026-05-07T21:16:49Z</time></trkpt>
<trkpt lat="50.647002" lon="5.797045"><time>2026-05-07T21:26:49Z</time></trkpt>
<trkpt lat="50.650756" lon="5.809873"><time>2026-05-07T21:36:49Z</time></trkpt>
<trkpt lat="50.652064" lon="5.814623"><time>2026-05-07T21:46:49Z</time></trkpt>
<trkpt lat="50.652114" lon="5.817863"><time>2026-05-07T21:56:49Z</time></trkpt>
<trkpt lat="50.651551" lon="5.819752"><time>2026-05-07T22:06:49Z</time></trkpt>
<trkpt lat="50.651077" lon="5.821000"><time>2026-05-07T22:16:49Z</time></trkpt>
<trkpt lat="50.649297" lon="5.825980"><time>2026-05-07T22:26:49Z</time></trkpt>
<trkpt lat="50.649106" lon="5.828293"><time>2026-05-07T22:36:49Z</time></trkpt>
<trkpt lat="50.649410" lon="5.832065"><time>2026-05-07T22:46:49Z</time></trkpt>
<trkpt lat="50.648918" lon="5.834694"><time>2026-05-07T22:56:49Z</time></trkpt>
</trkseg>
</trk>
</gpx>